Wetterdaten: Freitag, 11.11.2022
Datum Zeit Temp. Aussen Temp. o. S. Temp +5cm Feuchte Auss Luftdruck Regen Sonnenschein Regendauer Solar Windben Empfang
11.11.2022 00:00 7,9 C 7,2 C 4,4 C 92 % 1029,3 hPa 0,0 l/m 0 min 0 min 0 W/m 6,4 km/h (2 Bft) 97,83 %
11.11.2022 00:02 7,9 C 7,2 C 4,4 C 92 % 1029,4 hPa 0,0 l/m 0 min 0 min 0 W/m 12,9 km/h (3 Bft) 97,67 %
11.11.2022 00:04 7,9 C 7,2 C 4,4 C 92 % 1029,3 hPa 0,0 l/m 0 min 0 min 0 W/m 6,4 km/h (2 Bft) 100,00 %
11.11.2022 00:08 7,9 C 7,2 C 4,4 C 92 % 1029,3 hPa 0,0 l/m 0 min 0 min 0 W/m 16,1 km/h (3 Bft) 98,78 %
11.11.2022 00:10 7,9 C 7,2 C 4,4 C 93 % 1029,3 hPa 0,0 l/m 0 min 0 min 0 W/m 12,9 km/h (3 Bft) 100,00 %
11.11.2022 00:12 7,9 C 7,2 C 4,4 C 93 % 1029,3 hPa 0,0 l/m 0 min 0 min 0 W/m 12,9 km/h (3 Bft) 100,00 %
11.11.2022 00:14 7,8 C 7,2 C 4,4 C 93 % 1029,3 hPa 0,0 l/m 0 min 0 min 0 W/m 12,9 km/h (3 Bft) 97,87 %
11.11.2022 00:16 7,8 C 7,2 C 4,4 C 93 % 1029,3 hPa 0,0 l/m 0 min 0 min 0 W/m 6,4 km/h (2 Bft) 100,00 %
11.11.2022 00:18 7,8 C 7,2 C 4,4 C 93 % 1029,4 hPa 0,0 l/m 0 min 0 min 0 W/m 6,4 km/h (2 Bft) 100,00 %
11.11.2022 00:20 7,8 C 7,2 C 4,4 C 93 % 1029,5 hPa 0,0 l/m 0 min 0 min 0 W/m 12,9 km/h (3 Bft) 97,87 %
11.11.2022 00:22 7,8 C 7,2 C 4,4 C 93 % 1029,5 hPa 0,0 l/m 0 min 0 min 0 W/m 6,4 km/h (2 Bft) 97,87 %
11.11.2022 00:24 7,8 C 7,2 C 4,4 C 93 % 1029,5 hPa 0,0 l/m 0 min 0 min 0 W/m 6,4 km/h (2 Bft) 100,00 %
11.11.2022 00:26 7,8 C 7,2 C 3,9 C 93 % 1029,5 hPa 0,0 l/m 0 min 0 min 0 W/m 3,2 km/h (1 Bft) 97,83 %
11.11.2022 00:28 7,8 C 6,7 C 4,4 C 93 % 1029,6 hPa 0,0 l/m 0 min 0 min 0 W/m 6,4 km/h (2 Bft) 100,00 %
11.11.2022 00:30 7,8 C 6,7 C 4,4 C 93 % 1029,5 hPa 0,0 l/m 0 min 0 min 0 W/m 3,2 km/h (1 Bft) 100,00 %
11.11.2022 00:32 7,8 C 6,7 C 3,9 C 93 % 1029,6 hPa 0,0 l/m 0 min 0 min 0 W/m 3,2 km/h (1 Bft) 97,87 %
11.11.2022 00:34 7,8 C 6,7 C 3,9 C 93 % 1029,6 hPa 0,0 l/m 0 min 0 min 0 W/m 6,4 km/h (2 Bft) 100,00 %
11.11.2022 00:36 7,7 C 6,7 C 3,9 C 93 % 1029,6 hPa 0,0 l/m 0 min 0 min 0 W/m 3,2 km/h (1 Bft) 100,00 %
11.11.2022 00:38 7,7 C 6,7 C 3,9 C 93 % 1029,5 hPa 0,0 l/m 0 min 0 min 0 W/m 6,4 km/h (2 Bft) 97,83 %
11.11.2022 00:40 7,7 C 6,7 C 3,9 C 93 % 1029,5 hPa 0,0 l/m 0 min 0 min 0 W/m 3,2 km/h (1 Bft) 97,87 %
11.11.2022 00:42 7,7 C 6,7 C 3,9 C 93 % 1029,5 hPa 0,0 l/m 0 min 0 min 0 W/m 3,2 km/h (1 Bft) 97,87 %
11.11.2022 00:44 7,7 C 6,7 C 3,9 C 93 % 1029,6 hPa 0,0 l/m 0 min 0 min 0 W/m 3,2 km/h (1 Bft) 95,74 %
11.11.2022 00:46 7,7 C 6,7 C 3,9 C 93 % 1029,6 hPa 0,0 l/m 0 min 0 min 0 W/m 3,2 km/h (1 Bft) 100,00 %
11.11.2022 00:48 7,7 C 6,7 C 3,9 C 93 % 1029,6 hPa 0,0 l/m 0 min 0 min 0 W/m 3,2 km/h (1 Bft) 97,87 %
11.11.2022 00:50 7,7 C 6,7 C 3,9 C 93 % 1029,4 hPa 0,0 l/m 0 min 0 min 0 W/m 6,4 km/h (2 Bft) 95,65 %
11.11.2022 00:52 7,6 C 6,7 C 3,9 C 93 % 1029,4 hPa 0,0 l/m 0 min 0 min 0 W/m 3,2 km/h (1 Bft) 97,87 %
11.11.2022 00:54 7,6 C 6,7 C 3,9 C 93 % 1029,4 hPa 0,0 l/m 0 min 0 min 0 W/m 3,2 km/h (1 Bft) 97,87 %
11.11.2022 00:56 7,6 C 6,7 C 3,9 C 93 % 1029,5 hPa 0,0 l/m 0 min 0 min 0 W/m 0,0 km/h (0 Bft) 93,62 %
11.11.2022 00:58 7,6 C 6,7 C 3,9 C 93 % 1029,6 hPa 0,0 l/m 0 min 0 min 0 W/m 0,0 km/h (0 Bft) 95,74 %
11.11.2022 01:00 7,6 C 6,7 C 3,9 C 93 % 1029,8 hPa 0,0 l/m 0 min 0 min 0 W/m 0,0 km/h (0 Bft) 95,74 %
11.11.2022 01:02 7,6 C 6,7 C 3,9 C 93 % 1029,9 hPa 0,0 l/m 0 min 0 min 0 W/m 0,0 km/h (0 Bft) 93,62 %
11.11.2022 01:04 7,6 C 6,7 C 3,3 C 93 % 1029,9 hPa 0,0 l/m 0 min 0 min 0 W/m 0,0 km/h (0 Bft) 95,65 %
11.11.2022 01:06 7,6 C 6,7 C 3,3 C 93 % 1029,9 hPa 0,0 l/m 0 min 0 min 0 W/m 0,0 km/h (0 Bft) 96,61 %
11.11.2022 01:08 7,6 C 6,1 C 3,3 C 93 % 1029,9 hPa 0,0 l/m 0 min 0 min 0 W/m 0,0 km/h (0 Bft) 97,14 %
11.11.2022 01:10 7,5 C 6,1 C 3,3 C 93 % 1029,9 hPa 0,0 l/m 0 min 0 min 0 W/m 0,0 km/h (0 Bft) 95,74 %
11.11.2022 01:12 7,5 C 6,1 C 3,3 C 93 % 1029,9 hPa 0,0 l/m 0 min 0 min 0 W/m 0,0 km/h (0 Bft) 93,62 %
11.11.2022 01:14 7,5 C 6,1 C 3,3 C 93 % 1029,9 hPa 0,0 l/m 0 min 0 min 0 W/m 0,0 km/h (0 Bft) 95,65 %
11.11.2022 01:16 7,4 C 6,1 C 3,3 C 93 % 1029,9 hPa 0,0 l/m 0 min 0 min 0 W/m 0,0 km/h (0 Bft) 100,00 %
11.11.2022 01:18 7,4 C 6,1 C 3,3 C 93 % 1030,0 hPa 0,0 l/m 0 min 0 min 0 W/m 0,0 km/h (0 Bft) 97,87 %
11.11.2022 01:20 7,4 C 6,1 C 3,3 C 93 % 1030,0 hPa 0,0 l/m 0 min 0 min 0 W/m 0,0 km/h (0 Bft) 97,87 %
11.11.2022 01:22 7,4 C 6,1 C 3,3 C 93 % 1030,0 hPa 0,0 l/m 0 min 0 min 0 W/m 0,0 km/h (0 Bft) 97,87 %
11.11.2022 01:24 7,4 C 6,1 C 3,3 C 93 % 1029,9 hPa 0,0 l/m 0 min 0 min 0 W/m 3,2 km/h (1 Bft) 97,87 %
11.11.2022 01:26 7,3 C 6,1 C 3,3 C 93 % 1029,9 hPa 0,0 l/m 0 min 0 min 0 W/m 0,0 km/h (0 Bft) 97,87 %
11.11.2022 01:28 7,3 C 6,1 C 3,3 C 93 % 1029,9 hPa 0,0 l/m 0 min 0 min 0 W/m 3,2 km/h (1 Bft) 97,83 %
11.11.2022 01:30 7,3 C 6,1 C 3,3 C 93 % 1029,8 hPa 0,0 l/m 0 min 0 min 0 W/m 3,2 km/h (1 Bft) 97,87 %
11.11.2022 01:32 7,3 C 6,1 C 3,3 C 93 % 1029,7 hPa 0,0 l/m 0 min 0 min 0 W/m 3,2 km/h (1 Bft) 97,87 %
11.11.2022 01:34 7,3 C 6,1 C 3,3 C 93 % 1029,8 hPa 0,0 l/m 0 min 0 min 0 W/m 3,2 km/h (1 Bft) 97,87 %
11.11.2022 01:36 7,3 C 6,1 C 3,3 C 93 % 1029,8 hPa 0,0 l/m 0 min 0 min 0 W/m 3,2 km/h (1 Bft) 91,49 %
11.11.2022 01:38 7,2 C 6,1 C 3,3 C 93 % 1029,7 hPa 0,0 l/m 0 min 0 min 0 W/m 3,2 km/h (1 Bft) 95,65 %
11.11.2022 01:40 7,2 C 6,1 C 3,3 C 93 % 1029,7 hPa 0,0 l/m 0 min 0 min 0 W/m 3,2 km/h (1 Bft) 93,62 %
11.11.2022 01:42 7,2 C 6,1 C 3,3 C 93 % 1029,8 hPa 0,0 l/m 0 min 0 min 0 W/m 3,2 km/h (1 Bft) 95,74 %
11.11.2022 01:44 7,2 C 6,1 C 3,3 C 93 % 1029,7 hPa 0,0 l/m 0 min 0 min 0 W/m 6,4 km/h (2 Bft) 95,74 %
11.11.2022 01:46 7,2 C 6,1 C 3,3 C 93 % 1029,7 hPa 0,0 l/m 0 min 0 min 0 W/m 3,2 km/h (1 Bft) 97,87 %
11.11.2022 01:48 7,2 C 6,1 C 3,3 C 93 % 1029,7 hPa 0,0 l/m 0 min 0 min 0 W/m 3,2 km/h (1 Bft) 97,87 %
11.11.2022 01:50 7,2 C 6,1 C 3,3 C 93 % 1029,6 hPa 0,0 l/m 0 min 0 min 0 W/m 3,2 km/h (1 Bft) 95,74 %
11.11.2022 01:52 7,2 C 6,1 C 3,3 C 94 % 1029,7 hPa 0,0 l/m 0 min 0 min 0 W/m 6,4 km/h (2 Bft) 95,65 %
11.11.2022 01:54 7,2 C 6,1 C 3,3 C 94 % 1029,8 hPa 0,0 l/m 0 min 0 min 0 W/m 6,4 km/h (2 Bft) 97,87 %
11.11.2022 01:56 7,2 C 6,1 C 3,3 C 94 % 1029,8 hPa 0,0 l/m 0 min 0 min 0 W/m 3,2 km/h (1 Bft) 100,00 %
11.11.2022 01:58 7,2 C 6,1 C 3,3 C 94 % 1029,8 hPa 0,0 l/m 0 min 0 min 0 W/m 3,2 km/h (1 Bft) 97,87 %
11.11.2022 02:00 7,2 C 6,1 C 3,9 C 94 % 1029,8 hPa 0,0 l/m 0 min 0 min 0 W/m 3,2 km/h (1 Bft) 97,87 %
11.11.2022 02:02 7,2 C 6,1 C 3,3 C 94 % 1029,8 hPa 0,0 l/m 0 min 0 min 0 W/m 6,4 km/h (2 Bft) 95,65 %
11.11.2022 02:04 7,2 C 6,1 C 3,3 C 94 % 1029,9 hPa 0,0 l/m 0 min 0 min 0 W/m 6,4 km/h (2 Bft) 97,87 %
11.11.2022 02:06 7,2 C 6,7 C 3,9 C 94 % 1030,0 hPa 0,0 l/m 0 min 0 min 0 W/m 3,2 km/h (1 Bft) 98,31 %
11.11.2022 02:08 7,2 C 6,1 C 3,3 C 94 % 1030,0 hPa 0,0 l/m 0 min 0 min 0 W/m 3,2 km/h (1 Bft) 97,14 %
11.11.2022 02:10 7,2 C 6,1 C 3,3 C 94 % 1030,0 hPa 0,0 l/m 0 min 0 min 0 W/m 0,0 km/h (0 Bft) 97,87 %
11.11.2022 02:12 7,2 C 6,1 C 3,3 C 94 % 1030,1 hPa 0,0 l/m 0 min 0 min 0 W/m 0,0 km/h (0 Bft) 95,74 %
11.11.2022 02:14 7,2 C 6,1 C 3,3 C 94 % 1030,1 hPa 0,0 l/m 0 min 0 min 0 W/m 3,2 km/h (1 Bft) 97,83 %
11.11.2022 02:16 7,2 C 6,1 C 3,3 C 94 % 1030,1 hPa 0,0 l/m 0 min 0 min 0 W/m 3,2 km/h (1 Bft) 97,87 %
11.11.2022 02:18 7,2 C 6,1 C 3,3 C 94 % 1030,1 hPa 0,0 l/m 0 min 0 min 0 W/m 3,2 km/h (1 Bft) 97,87 %
11.11.2022 02:20 7,1 C 6,1 C 3,3 C 94 % 1030,0 hPa 0,0 l/m 0 min 0 min 0 W/m 6,4 km/h (2 Bft) 95,74 %
11.11.2022 02:22 7,1 C 6,1 C 3,3 C 94 % 1030,1 hPa 0,0 l/m 0 min 0 min 0 W/m 0,0 km/h (0 Bft) 97,87 %
11.11.2022 02:24 7,1 C 6,1 C 3,3 C 94 % 1030,0 hPa 0,0 l/m 0 min 0 min 0 W/m 6,4 km/h (2 Bft) 97,87 %
11.11.2022 02:26 7,1 C 6,1 C 3,3 C 94 % 1030,0 hPa 0,0 l/m 0 min 0 min 0 W/m 6,4 km/h (2 Bft) 97,83 %
11.11.2022 02:28 7,1 C 6,1 C 3,3 C 94 % 1029,9 hPa 0,0 l/m 0 min 0 min 0 W/m 6,4 km/h (2 Bft) 97,87 %
11.11.2022 02:30 7,1 C 6,1 C 3,3 C 94 % 1029,9 hPa 0,0 l/m 0 min 0 min 0 W/m 3,2 km/h (1 Bft) 95,74 %
11.11.2022 02:32 7,1 C 6,1 C 3,3 C 94 % 1030,0 hPa 0,0 l/m 0 min 0 min 0 W/m 12,9 km/h (3 Bft) 95,74 %
11.11.2022 02:34 7,1 C 6,1 C 3,3 C 94 % 1030,0 hPa 0,0 l/m 0 min 0 min 0 W/m 3,2 km/h (1 Bft) 97,87 %
11.11.2022 02:36 7,1 C 6,1 C 3,3 C 94 % 1029,9 hPa 0,0 l/m 0 min 0 min 0 W/m 6,4 km/h (2 Bft) 95,74 %
11.11.2022 02:38 7,1 C 6,1 C 3,3 C 94 % 1030,0 hPa 0,0 l/m 0 min 0 min 0 W/m 6,4 km/h (2 Bft) 93,48 %
11.11.2022 02:40 7,1 C 6,1 C 3,3 C 94 % 1030,0 hPa 0,0 l/m 0 min 0 min 0 W/m 6,4 km/h (2 Bft) 97,87 %
11.11.2022 02:42 7,1 C 6,1 C 3,3 C 94 % 1030,0 hPa 0,0 l/m 0 min 0 min 0 W/m 6,4 km/h (2 Bft) 95,74 %
11.11.2022 02:44 7,1 C 6,1 C 3,3 C 94 % 1030,1 hPa 0,0 l/m 0 min 0 min 0 W/m 3,2 km/h (1 Bft) 97,87 %
11.11.2022 02:46 7,1 C 6,1 C 3,3 C 94 % 1030,1 hPa 0,0 l/m 0 min 0 min 0 W/m 3,2 km/h (1 Bft) 97,87 %
11.11.2022 02:48 7,1 C 6,1 C 3,3 C 94 % 1030,1 hPa 0,0 l/m 0 min 0 min 0 W/m 3,2 km/h (1 Bft) 95,74 %
11.11.2022 02:50 7,1 C 6,1 C 3,3 C 94 % 1030,1 hPa 0,0 l/m 0 min 0 min 0 W/m 3,2 km/h (1 Bft) 97,83 %
11.11.2022 02:52 7,1 C 6,1 C 3,3 C 94 % 1030,1 hPa 0,0 l/m 0 min 0 min 0 W/m 3,2 km/h (1 Bft) 97,87 %
11.11.2022 02:54 7,0 C 6,1 C 3,3 C 94 % 1030,1 hPa 0,0 l/m 0 min 0 min 0 W/m 0,0 km/h (0 Bft) 97,87 %
11.11.2022 02:56 7,0 C 6,1 C 3,3 C 94 % 1030,1 hPa 0,0 l/m 0 min 0 min 0 W/m 6,4 km/h (2 Bft) 97,87 %
11.11.2022 02:58 7,0 C 6,1 C 3,3 C 94 % 1030,1 hPa 0,0 l/m 0 min 0 min 0 W/m 3,2 km/h (1 Bft) 100,00 %
11.11.2022 03:00 6,9 C 6,1 C 3,3 C 94 % 1030,1 hPa 0,0 l/m 0 min 0 min 0 W/m 0,0 km/h (0 Bft) 100,00 %
11.11.2022 03:02 6,9 C 6,1 C 3,3 C 94 % 1030,1 hPa 0,0 l/m 0 min 0 min 0 W/m 3,2 km/h (1 Bft) 97,83 %
11.11.2022 03:04 6,9 C 6,1 C 3,3 C 94 % 1030,1 hPa 0,0 l/m 0 min 0 min 0 W/m 3,2 km/h (1 Bft) 97,87 %
11.11.2022 03:06 6,9 C 6,1 C 3,3 C 94 % 1030,1 hPa 0,0 l/m 0 min 0 min 0 W/m 0,0 km/h (0 Bft) 98,31 %
11.11.2022 03:08 6,9 C 6,1 C 3,3 C 94 % 1030,1 hPa 0,0 l/m 0 min 0 min 0 W/m 3,2 km/h (1 Bft) 100,00 %
11.11.2022 03:10 6,8 C 6,1 C 3,3 C 94 % 1030,1 hPa 0,0 l/m 0 min 0 min 0 W/m 3,2 km/h (1 Bft) 100,00 %
11.11.2022 03:12 6,8 C 6,1 C 3,3 C 94 % 1030,1 hPa 0,0 l/m 0 min 0 min 0 W/m 0,0 km/h (0 Bft) 100,00 %
11.11.2022 03:14 6,8 C 6,1 C 3,3 C 95 % 1030,1 hPa 0,0 l/m 0 min 0 min 0 W/m 3,2 km/h (1 Bft) 97,83 %
11.11.2022 03:16 6,8 C 6,1 C 3,3 C 95 % 1030,1 hPa 0,0 l/m 0 min 0 min 0 W/m 3,2 km/h (1 Bft) 100,00 %
11.11.2022 03:18 6,8 C 6,1 C 3,3 C 95 % 1030,0 hPa 0,0 l/m 0 min 0 min 0 W/m 3,2 km/h (1 Bft) 100,00 %
11.11.2022 03:20 6,8 C 6,1 C 3,3 C 95 % 1030,0 hPa 0,0 l/m 0 min 0 min 0 W/m 3,2 km/h (1 Bft) 93,62 %
11.11.2022 03:22 6,8 C 6,1 C 3,3 C 95 % 1030,1 hPa 0,0 l/m 0 min 0 min 0 W/m 3,2 km/h (1 Bft) 97,87 %
11.11.2022 03:24 6,8 C 6,1 C 3,3 C 95 % 1030,1 hPa 0,0 l/m 0 min 0 min 0 W/m 3,2 km/h (1 Bft) 95,74 %
11.11.2022 03:26 6,7 C 6,1 C 3,3 C 94 % 1030,1 hPa 0,0 l/m 0 min 0 min 0 W/m 6,4 km/h (2 Bft) 97,83 %
11.11.2022 03:28 6,7 C 6,1 C 3,3 C 94 % 1030,1 hPa 0,0 l/m 0 min 0 min 0 W/m 12,9 km/h (3 Bft) 97,87 %
11.11.2022 03:30 6,7 C 6,1 C 3,3 C 94 % 1030,1 hPa 0,0 l/m 0 min 0 min 0 W/m 3,2 km/h (1 Bft) 97,87 %
11.11.2022 03:32 6,7 C 6,1 C 3,3 C 95 % 1030,1 hPa 0,0 l/m 0 min 0 min 0 W/m 3,2 km/h (1 Bft) 97,87 %
11.11.2022 03:34 6,7 C 6,1 C 3,3 C 95 % 1030,0 hPa 0,0 l/m 0 min 0 min 0 W/m 6,4 km/h (2 Bft) 97,87 %
11.11.2022 03:36 6,7 C 6,1 C 3,3 C 95 % 1030,1 hPa 0,0 l/m 0 min 0 min 0 W/m 6,4 km/h (2 Bft) 97,87 %
11.11.2022 03:38 6,7 C 6,1 C 3,3 C 95 % 1030,1 hPa 0,0 l/m 0 min 0 min 0 W/m 3,2 km/h (1 Bft) 95,65 %
11.11.2022 03:40 6,7 C 6,1 C 3,3 C 95 % 1030,1 hPa 0,0 l/m 0 min 0 min 0 W/m 3,2 km/h (1 Bft) 95,74 %
11.11.2022 03:42 6,7 C 6,1 C 3,3 C 95 % 1030,1 hPa 0,0 l/m 0 min 0 min 0 W/m 6,4 km/h (2 Bft) 97,87 %
11.11.2022 03:44 6,7 C 6,1 C 3,3 C 95 % 1030,1 hPa 0,0 l/m 0 min 0 min 0 W/m 6,4 km/h (2 Bft) 97,87 %
11.11.2022 03:46 6,7 C 6,1 C 3,3 C 95 % 1030,1 hPa 0,0 l/m 0 min 0 min 0 W/m 3,2 km/h (1 Bft) 97,87 %
11.11.2022 03:48 6,7 C 6,1 C 3,3 C 95 % 1030,1 hPa 0,0 l/m 0 min 0 min 0 W/m 3,2 km/h (1 Bft) 95,74 %
11.11.2022 03:50 6,7 C 6,1 C 3,3 C 95 % 1030,1 hPa 0,0 l/m 0 min 0 min 0 W/m 3,2 km/h (1 Bft) 95,65 %
11.11.2022 03:52 6,7 C 6,1 C 3,3 C 95 % 1030,2 hPa 0,0 l/m 0 min 0 min 0 W/m 0,0 km/h (0 Bft) 95,74 %
11.11.2022 03:54 6,7 C 5,6 C 3,3 C 95 % 1030,2 hPa 0,0 l/m 0 min 0 min 0 W/m 0,0 km/h (0 Bft) 97,87 %
11.11.2022 03:56 6,6 C 5,6 C 3,3 C 95 % 1030,2 hPa 0,0 l/m 0 min 0 min 0 W/m 0,0 km/h (0 Bft) 100,00 %
11.11.2022 03:58 6,6 C 5,6 C 3,3 C 95 % 1030,2 hPa 0,0 l/m 0 min 0 min 0 W/m 0,0 km/h (0 Bft) 100,00 %
11.11.2022 04:00 6,6 C 5,6 C 3,3 C 95 % 1030,2 hPa 0,0 l/m 0 min 0 min 0 W/m 0,0 km/h (0 Bft) 100,00 %
11.11.2022 04:02 6,6 C 5,6 C 3,3 C 95 % 1030,2 hPa 0,0 l/m 0 min 0 min 0 W/m 0,0 km/h (0 Bft) 100,00 %
11.11.2022 04:04 6,6 C 5,6 C 3,3 C 95 % 1030,2 hPa 0,0 l/m 0 min 0 min 0 W/m 0,0 km/h (0 Bft) 93,75 %
11.11.2022 04:09 6,6 C 5,6 C 3,3 C 95 % 1030,1 hPa 0,0 l/m 0 min 0 min 0 W/m 0,0 km/h (0 Bft) 42,86 %
11.11.2022 04:10 6,6 C 5,6 C 3,3 C 95 % 1030,1 hPa 0,0 l/m 0 min 0 min 0 W/m 0,0 km/h (0 Bft) 100,00 %
11.11.2022 04:12 6,6 C 5,6 C 3,3 C 95 % 1030,1 hPa 0,0 l/m 0 min 0 min 0 W/m 0,0 km/h (0 Bft) 97,83 %
11.11.2022 04:14 6,6 C 5,6 C 2,8 C 95 % 1030,1 hPa 0,0 l/m 0 min 0 min 0 W/m 0,0 km/h (0 Bft) 100,00 %
11.11.2022 04:16 6,5 C 5,6 C 2,8 C 95 % 1030,1 hPa 0,0 l/m 0 min 0 min 0 W/m 0,0 km/h (0 Bft) 95,74 %
11.11.2022 04:18 6,5 C 5,6 C 2,8 C 95 % 1030,0 hPa 0,0 l/m 0 min 0 min 0 W/m 0,0 km/h (0 Bft) 97,87 %
11.11.2022 04:20 6,5 C 5,6 C 2,8 C 95 % 1030,0 hPa 0,0 l/m 0 min 0 min 0 W/m 0,0 km/h (0 Bft) 95,74 %
11.11.2022 04:22 6,5 C 5,6 C 2,8 C 95 % 1030,1 hPa 0,0 l/m 0 min 0 min 0 W/m 0,0 km/h (0 Bft) 95,74 %
11.11.2022 04:24 6,5 C 5,6 C 2,8 C 95 % 1030,1 hPa 0,0 l/m 0 min 0 min 0 W/m 0,0 km/h (0 Bft) 97,83 %
11.11.2022 04:26 6,5 C 5,6 C 2,8 C 95 % 1030,0 hPa 0,0 l/m 0 min 0 min 0 W/m 3,2 km/h (1 Bft) 97,87 %
11.11.2022 04:28 6,5 C 5,6 C 2,8 C 95 % 1030,0 hPa 0,0 l/m 0 min 0 min 0 W/m 3,2 km/h (1 Bft) 95,74 %
11.11.2022 04:30 6,4 C 5,6 C 2,8 C 95 % 1030,0 hPa 0,0 l/m 0 min 0 min 0 W/m 6,4 km/h (2 Bft) 97,87 %
11.11.2022 04:32 6,4 C 5,6 C 2,8 C 95 % 1030,0 hPa 0,0 l/m 0 min 0 min 0 W/m 6,4 km/h (2 Bft) 95,74 %
11.11.2022 04:34 6,4 C 5,6 C 2,8 C 95 % 1030,0 hPa 0,0 l/m 0 min 0 min 0 W/m 6,4 km/h (2 Bft) 100,00 %
11.11.2022 04:36 6,4 C 5,6 C 2,8 C 95 % 1030,0 hPa 0,0 l/m 0 min 0 min 0 W/m 6,4 km/h (2 Bft) 93,48 %
11.11.2022 04:38 6,4 C 5,6 C 2,8 C 95 % 1029,9 hPa 0,0 l/m 0 min 0 min 0 W/m 3,2 km/h (1 Bft) 97,87 %
11.11.2022 04:40 6,4 C 5,6 C 2,8 C 95 % 1029,8 hPa 0,0 l/m 0 min 0 min 0 W/m 6,4 km/h (2 Bft) 100,00 %
11.11.2022 04:42 6,4 C 5,6 C 2,8 C 95 % 1029,9 hPa 0,0 l/m 0 min 0 min 0 W/m 6,4 km/h (2 Bft) 100,00 %
11.11.2022 04:44 6,4 C 5,6 C 2,8 C 95 % 1029,8 hPa 0,0 l/m 0 min 0 min 0 W/m 12,9 km/h (3 Bft) 100,00 %
11.11.2022 04:46 6,4 C 5,6 C 2,8 C 95 % 1029,8 hPa 0,0 l/m 0 min 0 min 0 W/m 6,4 km/h (2 Bft) 100,00 %
11.11.2022 04:48 6,3 C 5,6 C 2,8 C 95 % 1029,9 hPa 0,0 l/m 0 min 0 min 0 W/m 6,4 km/h (2 Bft) 97,83 %
11.11.2022 04:50 6,4 C 5,6 C 2,8 C 95 % 1030,0 hPa 0,0 l/m 0 min 0 min 0 W/m 3,2 km/h (1 Bft) 97,87 %
11.11.2022 04:52 6,3 C 5,6 C 2,8 C 95 % 1030,0 hPa 0,0 l/m 0 min 0 min 0 W/m 3,2 km/h (1 Bft) 100,00 %
11.11.2022 04:54 6,3 C 5,6 C 2,8 C 95 % 1029,9 hPa 0,0 l/m 0 min 0 min 0 W/m 6,4 km/h (2 Bft) 100,00 %
11.11.2022 04:56 6,3 C 5,6 C 2,8 C 95 % 1029,9 hPa 0,0 l/m 0 min 0 min 0 W/m 0,0 km/h (0 Bft) 97,87 %
11.11.2022 04:58 6,3 C 5,6 C 2,8 C 95 % 1029,8 hPa 0,0 l/m 0 min 0 min 0 W/m 3,2 km/h (1 Bft) 100,00 %
11.11.2022 05:00 6,3 C 5,6 C 2,8 C 95 % 1029,8 hPa 0,0 l/m 0 min 0 min 0 W/m 6,4 km/h (2 Bft) 95,65 %
11.11.2022 05:02 6,3 C 5,6 C 2,8 C 95 % 1029,9 hPa 0,0 l/m 0 min 0 min 0 W/m 6,4 km/h (2 Bft) 100,00 %
11.11.2022 05:04 6,3 C 5,6 C 2,8 C 95 % 1029,9 hPa 0,0 l/m 0 min 0 min 0 W/m 0,0 km/h (0 Bft) 97,87 %
11.11.2022 05:06 6,3 C 5,6 C 2,8 C 95 % 1029,9 hPa 0,0 l/m 0 min 0 min 0 W/m 3,2 km/h (1 Bft) 97,87 %
11.11.2022 05:08 6,3 C 5,6 C 2,8 C 95 % 1029,9 hPa 0,0 l/m 0 min 0 min 0 W/m 3,2 km/h (1 Bft) 97,87 %
11.11.2022 05:10 6,2 C 5,6 C 2,8 C 95 % 1029,9 hPa 0,0 l/m 0 min 0 min 0 W/m 3,2 km/h (1 Bft) 97,87 %
11.11.2022 05:12 6,2 C 5,6 C 2,8 C 95 % 1029,9 hPa 0,0 l/m 0 min 0 min 0 W/m 6,4 km/h (2 Bft) 95,74 %
11.11.2022 05:14 6,2 C 5,6 C 2,8 C 95 % 1029,9 hPa 0,0 l/m 0 min 0 min 0 W/m 0,0 km/h (0 Bft) 97,83 %
11.11.2022 05:16 6,2 C 5,6 C 2,8 C 95 % 1030,0 hPa 0,0 l/m 0 min 0 min 0 W/m 3,2 km/h (1 Bft) 97,87 %
11.11.2022 05:18 6,2 C 5,6 C 2,8 C 95 % 1030,1 hPa 0,0 l/m 0 min 0 min 0 W/m 3,2 km/h (1 Bft) 97,87 %
11.11.2022 05:20 6,2 C 5,6 C 2,8 C 95 % 1030,1 hPa 0,0 l/m 0 min 0 min 0 W/m 6,4 km/h (2 Bft) 97,87 %
11.11.2022 05:22 6,2 C 5,6 C 2,8 C 95 % 1030,1 hPa 0,0 l/m 0 min 0 min 0 W/m 3,2 km/h (1 Bft) 95,74 %
11.11.2022 05:24 6,2 C 5,6 C 2,8 C 95 % 1030,1 hPa 0,0 l/m 0 min 0 min 0 W/m 3,2 km/h (1 Bft) 97,83 %
11.11.2022 05:26 6,2 C 5,6 C 2,8 C 95 % 1030,1 hPa 0,0 l/m 0 min 0 min 0 W/m 6,4 km/h (2 Bft) 97,87 %
11.11.2022 05:28 6,2 C 5,6 C 2,8 C 95 % 1030,1 hPa 0,0 l/m 0 min 0 min 0 W/m 6,4 km/h (2 Bft) 97,87 %
11.11.2022 05:30 6,1 C 5,6 C 2,8 C 95 % 1030,1 hPa 0,0 l/m 0 min 0 min 0 W/m 3,2 km/h (1 Bft) 95,74 %
11.11.2022 05:32 6,1 C 5,0 C 2,8 C 95 % 1030,2 hPa 0,0 l/m 0 min 0 min 0 W/m 0,0 km/h (0 Bft) 95,74 %
11.11.2022 05:34 6,1 C 5,0 C 2,8 C 95 % 1030,1 hPa 0,0 l/m 0 min 0 min 0 W/m 3,2 km/h (1 Bft) 93,62 %
11.11.2022 05:36 6,1 C 5,0 C 2,8 C 95 % 1030,2 hPa 0,0 l/m 0 min 0 min 0 W/m 3,2 km/h (1 Bft) 93,48 %
11.11.2022 05:38 6,1 C 5,0 C 2,8 C 95 % 1030,1 hPa 0,0 l/m 0 min 0 min 0 W/m 6,4 km/h (2 Bft) 95,74 %
11.11.2022 05:40 6,1 C 5,0 C 2,8 C 95 % 1030,1 hPa 0,0 l/m 0 min 0 min 0 W/m 6,4 km/h (2 Bft) 95,74 %
11.11.2022 05:42 6,1 C 5,0 C 2,8 C 95 % 1030,1 hPa 0,0 l/m 0 min 0 min 0 W/m 3,2 km/h (1 Bft) 95,74 %
11.11.2022 05:44 6,1 C 5,0 C 2,8 C 95 % 1030,1 hPa 0,0 l/m 0 min 0 min 0 W/m 3,2 km/h (1 Bft) 95,74 %
11.11.2022 05:49 6,1 C 5,0 C 2,8 C 95 % 1030,2 hPa 0,0 l/m 0 min 0 min 0 W/m 3,2 km/h (1 Bft) 92,54 %
11.11.2022 05:50 6,1 C 5,0 C 2,8 C 95 % 1030,2 hPa 0,0 l/m 0 min 0 min 0 W/m 3,2 km/h (1 Bft) 91,30 %
11.11.2022 05:52 6,0 C 5,0 C 2,8 C 95 % 1030,1 hPa 0,0 l/m 0 min 0 min 0 W/m 3,2 km/h (1 Bft) 95,74 %
11.11.2022 05:54 6,0 C 5,0 C 2,8 C 95 % 1030,1 hPa 0,0 l/m 0 min 0 min 0 W/m 3,2 km/h (1 Bft) 95,74 %
11.11.2022 05:56 6,0 C 5,0 C 2,8 C 95 % 1030,1 hPa 0,0 l/m 0 min 0 min 0 W/m 3,2 km/h (1 Bft) 93,62 %
11.11.2022 05:58 6,0 C 5,0 C 2,8 C 95 % 1030,1 hPa 0,0 l/m 0 min 0 min 0 W/m 6,4 km/h (2 Bft) 93,62 %
11.11.2022 06:00 6,0 C 5,6 C 2,8 C 95 % 1030,1 hPa 0,0 l/m 0 min 0 min 0 W/m 3,2 km/h (1 Bft) 95,65 %
11.11.2022 06:02 6,1 C 5,6 C 2,8 C 95 % 1030,2 hPa 0,0 l/m 0 min 0 min 0 W/m 6,4 km/h (2 Bft) 93,62 %
11.11.2022 06:04 6,1 C 5,6 C 2,8 C 95 % 1030,1 hPa 0,0 l/m 0 min 0 min 0 W/m 3,2 km/h (1 Bft) 91,49 %
11.11.2022 06:08 6,1 C 5,6 C 2,8 C 96 % 1030,1 hPa 0,0 l/m 0 min 0 min 0 W/m 6,4 km/h (2 Bft) 96,04 %
11.11.2022 06:10 6,1 C 5,6 C 2,8 C 96 % 1030,0 hPa 0,0 l/m 0 min 0 min 0 W/m 3,2 km/h (1 Bft) 97,83 %
11.11.2022 06:12 6,1 C 5,6 C 2,8 C 96 % 1030,0 hPa 0,0 l/m 0 min 0 min 0 W/m 6,4 km/h (2 Bft) 97,87 %
11.11.2022 06:14 6,1 C 5,6 C 2,8 C 96 % 1029,9 hPa 0,0 l/m 0 min 0 min 0 W/m 3,2 km/h (1 Bft) 91,49 %
11.11.2022 06:16 6,1 C 5,6 C 2,8 C 96 % 1030,0 hPa 0,0 l/m 0 min 0 min 0 W/m 6,4 km/h (2 Bft) 97,87 %
11.11.2022 06:18 6,1 C 5,6 C 2,8 C 96 % 1030,0 hPa 0,0 l/m 0 min 0 min 0 W/m 6,4 km/h (2 Bft) 97,87 %
11.11.2022 06:20 6,1 C 5,6 C 2,8 C 96 % 1029,9 hPa 0,0 l/m 0 min 0 min 0 W/m 6,4 km/h (2 Bft) 97,87 %
11.11.2022 06:22 6,1 C 5,6 C 2,8 C 96 % 1030,0 hPa 0,0 l/m 0 min 0 min 0 W/m 12,9 km/h (3 Bft) 95,65 %
11.11.2022 06:24 6,1 C 5,6 C 2,8 C 96 % 1029,9 hPa 0,0 l/m 0 min 0 min 0 W/m 3,2 km/h (1 Bft) 100,00 %
11.11.2022 06:26 6,1 C 5,6 C 2,8 C 96 % 1030,0 hPa 0,0 l/m 0 min 0 min 0 W/m 3,2 km/h (1 Bft) 100,00 %
11.11.2022 06:28 6,1 C 5,6 C 2,8 C 96 % 1030,0 hPa 0,0 l/m 0 min 0 min 0 W/m 3,2 km/h (1 Bft) 97,87 %
11.11.2022 06:30 6,1 C 5,6 C 2,8 C 96 % 1030,1 hPa 0,0 l/m 0 min 0 min 0 W/m 3,2 km/h (1 Bft) 100,00 %
11.11.2022 06:32 6,1 C 5,6 C 2,8 C 96 % 1030,1 hPa 0,0 l/m 0 min 0 min 0 W/m 6,4 km/h (2 Bft) 100,00 %
11.11.2022 06:34 6,1 C 5,6 C 2,8 C 96 % 1030,1 hPa 0,0 l/m 0 min 0 min 0 W/m 3,2 km/h (1 Bft) 97,83 %
11.11.2022 06:36 6,1 C 5,6 C 2,8 C 96 % 1030,1 hPa 0,0 l/m 0 min 0 min 0 W/m 6,4 km/h (2 Bft) 100,00 %
11.11.2022 06:38 6,1 C 5,6 C 2,8 C 96 % 1030,1 hPa 0,0 l/m 0 min 0 min 0 W/m 3,2 km/h (1 Bft) 100,00 %
11.11.2022 06:40 6,1 C 5,6 C 2,8 C 96 % 1030,2 hPa 0,0 l/m 0 min 0 min 0 W/m 6,4 km/h (2 Bft) 97,87 %
11.11.2022 06:42 6,1 C 5,6 C 2,8 C 96 % 1030,1 hPa 0,0 l/m 0 min 0 min 0 W/m 16,1 km/h (3 Bft) 100,00 %
11.11.2022 06:44 6,1 C 5,6 C 2,8 C 96 % 1030,2 hPa 0,0 l/m 0 min 0 min 0 W/m 6,4 km/h (2 Bft) 100,00 %
11.11.2022 06:46 6,1 C 5,6 C 2,8 C 96 % 1030,2 hPa 0,0 l/m 0 min 0 min 0 W/m 12,9 km/h (3 Bft) 97,83 %
11.11.2022 06:48 6,1 C 5,6 C 2,8 C 96 % 1030,2 hPa 0,0 l/m 0 min 0 min 0 W/m 3,2 km/h (1 Bft) 100,00 %
11.11.2022 06:50 6,1 C 5,6 C 2,8 C 96 % 1030,3 hPa 0,0 l/m 0 min 0 min 0 W/m 12,9 km/h (3 Bft) 100,00 %
11.11.2022 06:52 6,1 C 5,6 C 2,8 C 96 % 1030,3 hPa 0,0 l/m 0 min 0 min 0 W/m 6,4 km/h (2 Bft) 95,74 %
11.11.2022 06:54 6,1 C 5,6 C 2,8 C 96 % 1030,3 hPa 0,0 l/m 0 min 0 min 0 W/m 6,4 km/h (2 Bft) 100,00 %
11.11.2022 06:56 6,1 C 5,6 C 2,8 C 96 % 1030,2 hPa 0,0 l/m 0 min 0 min 0 W/m 6,4 km/h (2 Bft) 100,00 %
11.11.2022 06:58 6,1 C 5,6 C 2,8 C 96 % 1030,2 hPa 0,0 l/m 0 min 0 min 0 W/m 16,1 km/h (3 Bft) 95,65 %
11.11.2022 07:00 6,1 C 5,6 C 2,8 C 96 % 1030,2 hPa 0,0 l/m 0 min 0 min 0 W/m 16,1 km/h (3 Bft) 100,00 %
11.11.2022 07:02 6,1 C 5,6 C 2,8 C 96 % 1030,3 hPa 0,0 l/m 0 min 0 min 0 W/m 3,2 km/h (1 Bft) 100,00 %
11.11.2022 07:04 6,1 C 5,6 C 2,8 C 96 % 1030,3 hPa 0,0 l/m 0 min 0 min 0 W/m 6,4 km/h (2 Bft) 97,56 %
11.11.2022 07:06 6,2 C 5,6 C 2,8 C 96 % 1030,3 hPa 0,0 l/m 0 min 0 min 0 W/m 12,9 km/h (3 Bft) 100,00 %
11.11.2022 07:08 6,2 C 5,6 C 2,8 C 96 % 1030,4 hPa 0,0 l/m 0 min 0 min 0 W/m 6,4 km/h (2 Bft) 100,00 %
11.11.2022 07:10 6,2 C 5,6 C 2,8 C 96 % 1030,4 hPa 0,0 l/m 0 min 0 min 0 W/m 12,9 km/h (3 Bft) 91,30 %
11.11.2022 07:12 6,2 C 5,6 C 2,8 C 96 % 1030,4 hPa 0,0 l/m 0 min 0 min 0 W/m 12,9 km/h (3 Bft) 97,87 %
11.11.2022 07:14 6,2 C 5,6 C 2,8 C 96 % 1030,4 hPa 0,0 l/m 0 min 0 min 0 W/m 6,4 km/h (2 Bft) 100,00 %
11.11.2022 07:16 6,2 C 5,6 C 2,8 C 96 % 1030,4 hPa 0,0 l/m 0 min 0 min 0 W/m 12,9 km/h (3 Bft) 97,56 %
11.11.2022 07:18 6,2 C 5,6 C 2,8 C 96 % 1030,3 hPa 0,0 l/m 0 min 0 min 0 W/m 6,4 km/h (2 Bft) 100,00 %
11.11.2022 07:20 6,2 C 5,6 C 2,8 C 96 % 1030,4 hPa 0,0 l/m 0 min 0 min 0 W/m 12,9 km/h (3 Bft) 100,00 %
11.11.2022 07:22 6,2 C 5,6 C 2,8 C 96 % 1030,4 hPa 0,0 l/m 0 min 0 min 0 W/m 6,4 km/h (2 Bft) 97,87 %
11.11.2022 07:24 6,3 C 5,6 C 2,8 C 96 % 1030,4 hPa 0,0 l/m 0 min 0 min 0 W/m 6,4 km/h (2 Bft) 100,00 %
11.11.2022 07:26 6,2 C 5,6 C 2,8 C 96 % 1030,4 hPa 0,0 l/m 0 min 0 min 0 W/m 3,2 km/h (1 Bft) 97,87 %
11.11.2022 07:28 6,3 C 5,6 C 2,8 C 96 % 1030,5 hPa 0,0 l/m 0 min 0 min 0 W/m 3,2 km/h (1 Bft) 97,87 %
11.11.2022 07:30 6,2 C 5,6 C 2,8 C 96 % 1030,4 hPa 0,0 l/m 0 min 0 min 0 W/m 6,4 km/h (2 Bft) 97,87 %
11.11.2022 07:32 6,2 C 5,6 C 2,8 C 96 % 1030,4 hPa 0,0 l/m 0 min 0 min 0 W/m 6,4 km/h (2 Bft) 97,87 %
11.11.2022 07:34 6,2 C 5,6 C 2,8 C 96 % 1030,5 hPa 0,0 l/m 0 min 0 min 0 W/m 6,4 km/h (2 Bft) 100,00 %
11.11.2022 07:36 6,2 C 5,6 C 2,8 C 96 % 1030,6 hPa 0,0 l/m 0 min 0 min 0 W/m 6,4 km/h (2 Bft) 100,00 %
11.11.2022 07:38 6,2 C 5,6 C 2,8 C 96 % 1030,6 hPa 0,0 l/m 0 min 0 min 0 W/m 6,4 km/h (2 Bft) 97,87 %
11.11.2022 07:40 6,2 C 5,6 C 2,8 C 96 % 1030,6 hPa 0,0 l/m 0 min 0 min 0 W/m 6,4 km/h (2 Bft) 95,74 %
11.11.2022 07:42 6,3 C 5,6 C 2,8 C 96 % 1030,6 hPa 0,0 l/m 0 min 0 min 0 W/m 3,2 km/h (1 Bft) 97,87 %
11.11.2022 07:44 6,2 C 5,6 C 2,8 C 96 % 1030,7 hPa 0,0 l/m 0 min 0 min 0 W/m 6,4 km/h (2 Bft) 97,87 %
11.11.2022 07:46 6,2 C 5,6 C 2,8 C 96 % 1030,7 hPa 0,0 l/m 0 min 0 min 0 W/m 12,9 km/h (3 Bft) 95,65 %
11.11.2022 07:48 6,2 C 5,6 C 2,8 C 96 % 1030,8 hPa 0,0 l/m 0 min 0 min 0 W/m 3,2 km/h (1 Bft) 94,34 %
11.11.2022 07:50 6,2 C 5,6 C 2,8 C 96 % 1030,8 hPa 0,0 l/m 0 min 0 min 0 W/m 6,4 km/h (2 Bft) 95,74 %
11.11.2022 07:52 6,2 C 5,6 C 2,8 C 96 % 1030,8 hPa 0,0 l/m 0 min 0 min 0 W/m 3,2 km/h (1 Bft) 95,74 %
11.11.2022 07:54 6,2 C 5,6 C 2,8 C 96 % 1030,8 hPa 0,0 l/m 0 min 0 min 0 W/m 6,4 km/h (2 Bft) 95,12 %
11.11.2022 07:56 6,2 C 5,6 C 2,8 C 96 % 1030,8 hPa 0,0 l/m 0 min 0 min 5 W/m 3,2 km/h (1 Bft) 95,74 %
11.11.2022 07:58 6,2 C 5,6 C 2,8 C 96 % 1030,8 hPa 0,0 l/m 0 min 0 min 6 W/m 0,0 km/h (0 Bft) 95,74 %
11.11.2022 08:00 6,2 C 5,6 C 2,8 C 96 % 1030,8 hPa 0,0 l/m 0 min 0 min 7 W/m 0,0 km/h (0 Bft) 95,65 %
11.11.2022 08:02 6,2 C 5,6 C 2,8 C 96 % 1030,8 hPa 0,0 l/m 0 min 0 min 9 W/m 0,0 km/h (0 Bft) 95,74 %
11.11.2022 08:04 6,2 C 5,6 C 2,8 C 96 % 1030,8 hPa 0,0 l/m 0 min 0 min 10 W/m 6,4 km/h (2 Bft) 93,62 %
11.11.2022 08:06 6,3 C 5,6 C 2,8 C 96 % 1030,8 hPa 0,0 l/m 0 min 0 min 11 W/m 12,9 km/h (3 Bft) 96,23 %
11.11.2022 08:08 6,3 C 5,6 C 2,8 C 96 % 1030,8 hPa 0,0 l/m 0 min 0 min 12 W/m 12,9 km/h (3 Bft) 97,87 %
11.11.2022 08:10 6,3 C 5,6 C 2,8 C 96 % 1030,8 hPa 0,0 l/m 0 min 0 min 14 W/m 6,4 km/h (2 Bft) 97,83 %
11.11.2022 08:12 6,3 C 5,6 C 2,8 C 96 % 1030,8 hPa 0,0 l/m 0 min 0 min 16 W/m 6,4 km/h (2 Bft) 95,74 %
11.11.2022 08:14 6,3 C 5,6 C 3,3 C 96 % 1030,9 hPa 0,0 l/m 0 min 0 min 17 W/m 3,2 km/h (1 Bft) 97,87 %
11.11.2022 08:16 6,3 C 5,6 C 3,3 C 96 % 1030,9 hPa 0,0 l/m 0 min 0 min 19 W/m 6,4 km/h (2 Bft) 97,56 %
11.11.2022 08:18 6,3 C 5,6 C 3,3 C 96 % 1030,9 hPa 0,0 l/m 0 min 0 min 21 W/m 12,9 km/h (3 Bft) 97,87 %
11.11.2022 08:20 6,3 C 5,6 C 3,3 C 96 % 1030,9 hPa 0,0 l/m 0 min 0 min 22 W/m 6,4 km/h (2 Bft) 93,62 %
11.11.2022 08:22 6,3 C 5,6 C 3,3 C 96 % 1030,9 hPa 0,0 l/m 0 min 0 min 24 W/m 3,2 km/h (1 Bft) 93,62 %
11.11.2022 08:24 6,3 C 5,6 C 3,3 C 96 % 1031,0 hPa 0,0 l/m 0 min 0 min 26 W/m 6,4 km/h (2 Bft) 97,83 %
11.11.2022 08:26 6,3 C 6,1 C 3,3 C 96 % 1031,0 hPa 0,0 l/m 0 min 0 min 28 W/m 6,4 km/h (2 Bft) 97,87 %
11.11.2022 08:28 6,3 C 6,1 C 3,3 C 96 % 1031,1 hPa 0,0 l/m 0 min 0 min 30 W/m 6,4 km/h (2 Bft) 97,87 %
11.11.2022 08:30 6,3 C 6,1 C 3,3 C 96 % 1031,0 hPa 0,0 l/m 0 min 0 min 32 W/m 6,4 km/h (2 Bft) 97,87 %
11.11.2022 08:32 6,3 C 6,1 C 3,3 C 96 % 1031,1 hPa 0,0 l/m 0 min 0 min 33 W/m 9,7 km/h (2 Bft) 97,87 %
11.11.2022 08:34 6,4 C 6,1 C 3,3 C 96 % 1031,1 hPa 0,0 l/m 0 min 0 min 35 W/m 3,2 km/h (1 Bft) 97,83 %
11.11.2022 08:36 6,4 C 6,1 C 3,3 C 96 % 1031,1 hPa 0,0 l/m 0 min 0 min 36 W/m 12,9 km/h (3 Bft) 95,74 %
11.11.2022 08:38 6,4 C 6,1 C 3,3 C 96 % 1031,1 hPa 0,0 l/m 0 min 0 min 37 W/m 16,1 km/h (3 Bft) 97,87 %
11.11.2022 08:40 6,5 C 6,1 C 3,3 C 96 % 1031,1 hPa 0,0 l/m 0 min 0 min 39 W/m 16,1 km/h (3 Bft) 95,74 %
11.11.2022 08:42 6,5 C 6,1 C 3,3 C 96 % 1031,1 hPa 0,0 l/m 0 min 0 min 40 W/m 12,9 km/h (3 Bft) 97,87 %
11.11.2022 08:44 6,5 C 6,1 C 3,3 C 96 % 1031,1 hPa 0,0 l/m 0 min 0 min 41 W/m 12,9 km/h (3 Bft) 97,87 %
11.11.2022 08:46 6,6 C 6,1 C 3,3 C 96 % 1031,2 hPa 0,0 l/m 0 min 0 min 43 W/m 6,4 km/h (2 Bft) 97,87 %
11.11.2022 08:48 6,6 C 6,1 C 3,3 C 96 % 1031,1 hPa 0,0 l/m 0 min 0 min 45 W/m 6,4 km/h (2 Bft) 97,83 %
11.11.2022 08:50 6,6 C 6,7 C 3,3 C 96 % 1031,1 hPa 0,0 l/m 0 min 0 min 46 W/m 12,9 km/h (3 Bft) 97,87 %
11.11.2022 08:52 6,6 C 6,7 C 3,9 C 96 % 1031,2 hPa 0,0 l/m 0 min 0 min 48 W/m 6,4 km/h (2 Bft) 97,87 %
11.11.2022 08:54 6,7 C 6,7 C 3,9 C 96 % 1031,2 hPa 0,0 l/m 0 min 0 min 49 W/m 6,4 km/h (2 Bft) 97,87 %
11.11.2022 08:56 6,7 C 6,7 C 3,9 C 96 % 1031,2 hPa 0,0 l/m 0 min 0 min 52 W/m 12,9 km/h (3 Bft) 95,74 %
11.11.2022 08:58 6,7 C 6,7 C 3,9 C 96 % 1031,3 hPa 0,0 l/m 0 min 0 min 53 W/m 6,4 km/h (2 Bft) 95,65 %
11.11.2022 09:00 6,8 C 6,7 C 3,9 C 96 % 1031,2 hPa 0,0 l/m 0 min 0 min 55 W/m 19,3 km/h (3 Bft) 97,87 %
11.11.2022 09:02 6,8 C 6,7 C 3,9 C 96 % 1031,2 hPa 0,0 l/m 0 min 0 min 57 W/m 16,1 km/h (3 Bft) 97,87 %
11.11.2022 09:04 6,8 C 6,7 C 3,9 C 96 % 1031,3 hPa 0,0 l/m 0 min 0 min 59 W/m 6,4 km/h (2 Bft) 97,87 %
11.11.2022 09:06 6,8 C 6,7 C 3,9 C 96 % 1031,2 hPa 0,0 l/m 0 min 0 min 62 W/m 16,1 km/h (3 Bft) 98,11 %
11.11.2022 09:08 6,9 C 7,2 C 3,9 C 96 % 1031,2 hPa 0,0 l/m 0 min 0 min 64 W/m 3,2 km/h (1 Bft) 97,83 %
11.11.2022 09:10 6,9 C 7,2 C 3,9 C 96 % 1031,3 hPa 0,0 l/m 0 min 0 min 66 W/m 6,4 km/h (2 Bft) 97,87 %
11.11.2022 09:12 6,9 C 7,2 C 3,9 C 96 % 1031,3 hPa 0,0 l/m 0 min 0 min 68 W/m 6,4 km/h (2 Bft) 95,74 %
11.11.2022 09:14 7,0 C 7,2 C 3,9 C 96 % 1031,4 hPa 0,0 l/m 0 min 0 min 70 W/m 12,9 km/h (3 Bft) 100,00 %
11.11.2022 09:16 7,1 C 7,2 C 4,4 C 96 % 1031,4 hPa 0,0 l/m 0 min 0 min 73 W/m 12,9 km/h (3 Bft) 97,87 %
11.11.2022 09:18 7,1 C 7,2 C 4,4 C 96 % 1031,4 hPa 0,0 l/m 0 min 0 min 75 W/m 12,9 km/h (3 Bft) 100,00 %
11.11.2022 09:20 7,2 C 7,2 C 4,4 C 96 % 1031,4 hPa 0,0 l/m 0 min 0 min 77 W/m 9,7 km/h (2 Bft) 100,00 %
11.11.2022 09:22 7,2 C 7,2 C 4,4 C 96 % 1031,4 hPa 0,0 l/m 0 min 0 min 79 W/m 12,9 km/h (3 Bft) 95,65 %
11.11.2022 09:24 7,3 C 7,2 C 4,4 C 96 % 1031,4 hPa 0,0 l/m 0 min 0 min 81 W/m 6,4 km/h (2 Bft) 95,12 %
11.11.2022 09:26 7,3 C 7,8 C 4,4 C 96 % 1031,4 hPa 0,0 l/m 0 min 0 min 83 W/m 12,9 km/h (3 Bft) 100,00 %
11.11.2022 09:28 7,3 C 7,8 C 4,4 C 96 % 1031,4 hPa 0,0 l/m 0 min 0 min 86 W/m 12,9 km/h (3 Bft) 100,00 %
11.11.2022 09:30 7,4 C 7,8 C 4,4 C 96 % 1031,4 hPa 0,0 l/m 0 min 0 min 94 W/m 12,9 km/h (3 Bft) 93,62 %
11.11.2022 09:32 7,4 C 7,8 C 4,4 C 96 % 1031,4 hPa 0,0 l/m 0 min 0 min 97 W/m 9,7 km/h (2 Bft) 93,62 %
11.11.2022 09:34 7,5 C 7,8 C 4,4 C 96 % 1031,3 hPa 0,0 l/m 0 min 0 min 95 W/m 9,7 km/h (2 Bft) 97,83 %
11.11.2022 09:36 7,6 C 7,8 C 5,0 C 96 % 1031,4 hPa 0,0 l/m 0 min 0 min 98 W/m 6,4 km/h (2 Bft) 97,87 %
11.11.2022 09:38 7,6 C 7,8 C 5,0 C 96 % 1031,3 hPa 0,0 l/m 0 min 0 min 105 W/m 9,7 km/h (2 Bft) 97,87 %
11.11.2022 09:40 7,6 C 8,3 C 5,0 C 96 % 1031,3 hPa 0,0 l/m 2 min 0 min 115 W/m 6,4 km/h (2 Bft) 97,87 %
11.11.2022 09:42 7,7 C 8,3 C 5,0 C 96 % 1031,3 hPa 0,0 l/m 2 min 0 min 122 W/m 6,4 km/h (2 Bft) 97,87 %
11.11.2022 09:44 7,7 C 8,3 C 5,0 C 96 % 1031,3 hPa 0,0 l/m 2 min 0 min 119 W/m 9,7 km/h (2 Bft) 97,87 %
11.11.2022 09:46 7,8 C 8,3 C 5,0 C 96 % 1031,2 hPa 0,0 l/m 2 min 0 min 122 W/m 9,7 km/h (2 Bft) 97,83 %
11.11.2022 09:48 7,8 C 8,3 C 5,0 C 96 % 1031,3 hPa 0,0 l/m 2 min 0 min 135 W/m 6,4 km/h (2 Bft) 97,87 %
11.11.2022 09:50 7,9 C 8,3 C 5,0 C 96 % 1031,2 hPa 0,0 l/m 2 min 0 min 142 W/m 6,4 km/h (2 Bft) 95,74 %
11.11.2022 09:52 7,9 C 8,9 C 5,0 C 96 % 1031,3 hPa 0,0 l/m 2 min 0 min 167 W/m 6,4 km/h (2 Bft) 97,87 %
11.11.2022 09:54 8,0 C 8,9 C 5,6 C 96 % 1031,3 hPa 0,0 l/m 2 min 0 min 168 W/m 6,4 km/h (2 Bft) 97,87 %
11.11.2022 09:56 8,1 C 9,4 C 5,6 C 96 % 1031,3 hPa 0,0 l/m 2 min 0 min 163 W/m 6,4 km/h (2 Bft) 97,87 %
11.11.2022 09:58 8,2 C 10,0 C 5,6 C 96 % 1031,3 hPa 0,0 l/m 2 min 0 min 155 W/m 6,4 km/h (2 Bft) 93,48 %
11.11.2022 10:00 8,2 C 10,0 C 5,6 C 96 % 1031,3 hPa 0,0 l/m 2 min 0 min 173 W/m 12,9 km/h (3 Bft) 97,87 %
11.11.2022 10:02 8,3 C 10,6 C 5,6 C 96 % 1031,3 hPa 0,0 l/m 2 min 0 min 186 W/m 6,4 km/h (2 Bft) 100,00 %
11.11.2022 10:04 8,4 C 11,1 C 5,6 C 95 % 1031,4 hPa 0,0 l/m 2 min 0 min 185 W/m 6,4 km/h (2 Bft) 97,62 %
11.11.2022 10:06 8,4 C 11,1 C 5,6 C 96 % 1031,4 hPa 0,0 l/m 2 min 0 min 182 W/m 6,4 km/h (2 Bft) 97,87 %
11.11.2022 10:08 8,5 C 11,1 C 5,6 C 95 % 1031,4 hPa 0,0 l/m 2 min 0 min 187 W/m 12,9 km/h (3 Bft) 100,00 %
11.11.2022 10:10 8,6 C 11,1 C 5,6 C 95 % 1031,4 hPa 0,0 l/m 2 min 0 min 184 W/m 16,1 km/h (3 Bft) 97,83 %
11.11.2022 10:12 8,7 C 11,1 C 5,6 C 95 % 1031,3 hPa 0,0 l/m 2 min 0 min 161 W/m 16,1 km/h (3 Bft) 100,00 %
11.11.2022 10:14 8,7 C 11,1 C 5,6 C 95 % 1031,4 hPa 0,0 l/m 2 min 0 min 181 W/m 12,9 km/h (3 Bft) 100,00 %
11.11.2022 10:16 8,8 C 11,7 C 5,6 C 95 % 1031,4 hPa 0,0 l/m 2 min 0 min 189 W/m 6,4 km/h (2 Bft) 97,87 %
11.11.2022 10:18 8,8 C 11,7 C 6,1 C 95 % 1031,4 hPa 0,0 l/m 2 min 0 min 188 W/m 12,9 km/h (3 Bft) 100,00 %
11.11.2022 10:20 8,9 C 11,7 C 6,1 C 94 % 1031,4 hPa 0,0 l/m 2 min 0 min 183 W/m 12,9 km/h (3 Bft) 95,74 %
11.11.2022 10:22 9,1 C 11,7 C 6,1 C 94 % 1031,4 hPa 0,0 l/m 2 min 0 min 182 W/m 12,9 km/h (3 Bft) 97,83 %
11.11.2022 10:24 9,1 C 11,7 C 6,1 C 94 % 1031,5 hPa 0,0 l/m 2 min 0 min 183 W/m 12,9 km/h (3 Bft) 97,87 %
11.11.2022 10:26 9,2 C 11,7 C 6,1 C 94 % 1031,4 hPa 0,0 l/m 2 min 0 min 181 W/m 12,9 km/h (3 Bft) 97,87 %
11.11.2022 10:28 9,3 C 11,7 C 6,1 C 94 % 1031,5 hPa 0,0 l/m 2 min 0 min 166 W/m 12,9 km/h (3 Bft) 97,87 %
11.11.2022 10:30 9,3 C 11,1 C 6,1 C 93 % 1031,4 hPa 0,0 l/m 2 min 0 min 163 W/m 12,9 km/h (3 Bft) 97,87 %
11.11.2022 10:32 9,4 C 11,7 C 6,1 C 93 % 1031,4 hPa 0,0 l/m 2 min 0 min 189 W/m 12,9 km/h (3 Bft) 97,87 %
11.11.2022 10:34 9,4 C 11,7 C 6,1 C 93 % 1031,4 hPa 0,0 l/m 2 min 0 min 187 W/m 16,1 km/h (3 Bft) 95,65 %
11.11.2022 10:36 9,5 C 11,7 C 6,1 C 93 % 1031,5 hPa 0,0 l/m 2 min 0 min 177 W/m 6,4 km/h (2 Bft) 97,87 %
11.11.2022 10:38 9,6 C 11,7 C 6,1 C 92 % 1031,5 hPa 0,0 l/m 2 min 0 min 173 W/m 16,1 km/h (3 Bft) 97,87 %
11.11.2022 10:40 9,6 C 11,1 C 6,1 C 92 % 1031,5 hPa 0,0 l/m 2 min 0 min 156 W/m 16,1 km/h (3 Bft) 97,87 %
11.11.2022 10:42 9,7 C 11,7 C 6,7 C 92 % 1031,5 hPa 0,0 l/m 2 min 0 min 165 W/m 12,9 km/h (3 Bft) 97,87 %
11.11.2022 10:44 9,8 C 11,7 C 6,7 C 92 % 1031,5 hPa 0,0 l/m 2 min 0 min 167 W/m 6,4 km/h (2 Bft) 97,87 %
11.11.2022 10:46 9,8 C 11,7 C 6,7 C 92 % 1031,6 hPa 0,0 l/m 2 min 0 min 158 W/m 6,4 km/h (2 Bft) 97,83 %
11.11.2022 10:48 9,9 C 11,1 C 6,7 C 91 % 1031,6 hPa 0,0 l/m 0 min 0 min 145 W/m 6,4 km/h (2 Bft) 97,87 %
11.11.2022 10:50 9,9 C 11,1 C 6,7 C 91 % 1031,6 hPa 0,0 l/m 0 min 0 min 146 W/m 12,9 km/h (3 Bft) 95,74 %
11.11.2022 10:52 10,0 C 11,1 C 6,7 C 91 % 1031,6 hPa 0,0 l/m 0 min 0 min 145 W/m 16,1 km/h (3 Bft) 97,87 %
11.11.2022 10:54 10,1 C 10,6 C 6,7 C 90 % 1031,6 hPa 0,0 l/m 0 min 0 min 138 W/m 6,4 km/h (2 Bft) 97,87 %
11.11.2022 10:56 10,1 C 11,1 C 6,7 C 90 % 1031,6 hPa 0,0 l/m 0 min 0 min 138 W/m 12,9 km/h (3 Bft) 97,87 %
11.11.2022 10:58 10,1 C 11,1 C 6,7 C 90 % 1031,6 hPa 0,0 l/m 0 min 0 min 134 W/m 6,4 km/h (2 Bft) 97,83 %
11.11.2022 11:00 10,2 C 11,1 C 6,7 C 90 % 1031,6 hPa 0,0 l/m 0 min 0 min 134 W/m 6,4 km/h (2 Bft) 93,62 %
11.11.2022 11:02 10,3 C 11,1 C 7,2 C 90 % 1031,6 hPa 0,0 l/m 0 min 0 min 132 W/m 0,0 km/h (0 Bft) 95,74 %
11.11.2022 11:04 10,3 C 11,1 C 7,2 C 90 % 1031,6 hPa 0,0 l/m 0 min 0 min 132 W/m 0,0 km/h (0 Bft) 96,08 %
11.11.2022 11:06 10,3 C 11,1 C 7,2 C 89 % 1031,6 hPa 0,0 l/m 0 min 0 min 130 W/m 12,9 km/h (3 Bft) 97,87 %
11.11.2022 11:08 10,4 C 11,1 C 7,2 C 89 % 1031,6 hPa 0,0 l/m 0 min 0 min 130 W/m 12,9 km/h (3 Bft) 97,83 %
11.11.2022 11:10 10,4 C 11,1 C 7,2 C 89 % 1031,6 hPa 0,0 l/m 0 min 0 min 129 W/m 6,4 km/h (2 Bft) 95,74 %
11.11.2022 11:12 10,5 C 11,1 C 7,2 C 89 % 1031,6 hPa 0,0 l/m 0 min 0 min 128 W/m 12,9 km/h (3 Bft) 95,74 %
11.11.2022 11:14 10,5 C 11,1 C 7,2 C 89 % 1031,6 hPa 0,0 l/m 0 min 0 min 128 W/m 12,9 km/h (3 Bft) 91,49 %
11.11.2022 11:16 10,6 C 11,1 C 7,2 C 88 % 1031,6 hPa 0,0 l/m 0 min 0 min 128 W/m 9,7 km/h (2 Bft) 91,49 %
11.11.2022 11:18 10,6 C 11,1 C 7,2 C 88 % 1031,7 hPa 0,0 l/m 0 min 0 min 128 W/m 6,4 km/h (2 Bft) 95,74 %
11.11.2022 11:20 10,6 C 11,1 C 7,2 C 88 % 1031,7 hPa 0,0 l/m 0 min 0 min 128 W/m 9,7 km/h (2 Bft) 95,65 %
11.11.2022 11:22 10,7 C 11,1 C 7,2 C 88 % 1031,7 hPa 0,0 l/m 0 min 0 min 128 W/m 12,9 km/h (3 Bft) 93,62 %
11.11.2022 11:24 10,7 C 11,1 C 7,2 C 88 % 1031,7 hPa 0,0 l/m 0 min 0 min 128 W/m 9,7 km/h (2 Bft) 95,74 %
11.11.2022 11:26 10,8 C 11,1 C 7,2 C 88 % 1031,7 hPa 0,0 l/m 0 min 0 min 128 W/m 6,4 km/h (2 Bft) 95,74 %
11.11.2022 11:28 10,8 C 11,7 C 7,2 C 87 % 1031,7 hPa 0,0 l/m 0 min 0 min 128 W/m 12,9 km/h (3 Bft) 97,87 %
11.11.2022 11:30 10,9 C 11,7 C 7,2 C 87 % 1031,7 hPa 0,0 l/m 0 min 0 min 127 W/m 6,4 km/h (2 Bft) 95,74 %
11.11.2022 11:32 10,9 C 11,7 C 7,2 C 87 % 1031,7 hPa 0,0 l/m 0 min 0 min 125 W/m 12,9 km/h (3 Bft) 95,65 %
11.11.2022 11:34 10,9 C 11,7 C 7,2 C 87 % 1031,7 hPa 0,0 l/m 0 min 0 min 125 W/m 6,4 km/h (2 Bft) 97,87 %
11.11.2022 11:36 11,0 C 11,7 C 7,2 C 87 % 1031,7 hPa 0,0 l/m 0 min 0 min 125 W/m 16,1 km/h (3 Bft) 97,87 %
11.11.2022 11:38 11,1 C 11,7 C 7,8 C 87 % 1031,8 hPa 0,0 l/m 0 min 0 min 123 W/m 9,7 km/h (2 Bft) 97,87 %
11.11.2022 11:40 11,1 C 11,7 C 7,8 C 86 % 1031,7 hPa 0,0 l/m 0 min 0 min 122 W/m 12,9 km/h (3 Bft) 93,62 %
11.11.2022 11:42 11,2 C 11,7 C 7,8 C 86 % 1031,7 hPa 0,0 l/m 0 min 0 min 120 W/m 12,9 km/h (3 Bft) 93,62 %
11.11.2022 11:44 11,2 C 11,7 C 7,8 C 86 % 1031,7 hPa 0,0 l/m 0 min 0 min 119 W/m 12,9 km/h (3 Bft) 95,65 %
11.11.2022 11:46 11,2 C 11,7 C 7,8 C 86 % 1031,8 hPa 0,0 l/m 0 min 0 min 118 W/m 19,3 km/h (3 Bft) 95,74 %
11.11.2022 11:48 11,3 C 11,7 C 7,8 C 86 % 1031,8 hPa 0,0 l/m 0 min 0 min 116 W/m 6,4 km/h (2 Bft) 95,74 %
11.11.2022 11:50 11,3 C 11,7 C 7,8 C 86 % 1031,7 hPa 0,0 l/m 0 min 0 min 116 W/m 3,2 km/h (1 Bft) 93,62 %
11.11.2022 11:52 11,3 C 11,7 C 7,2 C 86 % 1031,8 hPa 0,0 l/m 0 min 0 min 115 W/m 12,9 km/h (3 Bft) 95,74 %
11.11.2022 11:54 11,4 C 11,7 C 7,2 C 86 % 1031,8 hPa 0,0 l/m 0 min 0 min 114 W/m 6,4 km/h (2 Bft) 97,87 %
11.11.2022 11:56 11,4 C 11,1 C 7,2 C 86 % 1031,7 hPa 0,0 l/m 0 min 0 min 114 W/m 12,9 km/h (3 Bft) 95,65 %
11.11.2022 11:58 11,4 C 11,7 C 7,2 C 86 % 1031,7 hPa 0,0 l/m 0 min 0 min 114 W/m 3,2 km/h (1 Bft) 97,87 %
11.11.2022 12:00 11,4 C 11,7 C 7,2 C 86 % 1031,7 hPa 0,0 l/m 0 min 0 min 113 W/m 9,7 km/h (2 Bft) 97,87 %
11.11.2022 12:02 11,4 C 11,7 C 7,2 C 86 % 1031,7 hPa 0,0 l/m 0 min 0 min 113 W/m 6,4 km/h (2 Bft) 95,74 %
11.11.2022 12:04 11,4 C 11,7 C 7,2 C 86 % 1031,7 hPa 0,0 l/m 0 min 0 min 114 W/m 12,9 km/h (3 Bft) 95,74 %
11.11.2022 12:08 11,4 C 11,7 C 7,2 C 86 % 1031,7 hPa 0,0 l/m 0 min 0 min 114 W/m 16,1 km/h (3 Bft) 97,85 %
11.11.2022 12:10 11,5 C 11,7 C 7,2 C 86 % 1031,7 hPa 0,0 l/m 0 min 0 min 114 W/m 12,9 km/h (3 Bft) 97,87 %
11.11.2022 12:12 11,5 C 11,7 C 7,8 C 86 % 1031,7 hPa 0,0 l/m 0 min 0 min 113 W/m 6,4 km/h (2 Bft) 97,87 %
11.11.2022 12:14 11,5 C 11,7 C 7,8 C 87 % 1031,7 hPa 0,0 l/m 0 min 0 min 113 W/m 12,9 km/h (3 Bft) 97,87 %
11.11.2022 12:16 11,6 C 11,7 C 7,8 C 87 % 1031,8 hPa 0,0 l/m 0 min 0 min 113 W/m 6,4 km/h (2 Bft) 97,87 %
11.11.2022 12:18 11,6 C 11,7 C 7,8 C 86 % 1031,8 hPa 0,0 l/m 0 min 0 min 113 W/m 6,4 km/h (2 Bft) 100,00 %
11.11.2022 12:20 11,6 C 11,7 C 7,8 C 86 % 1031,8 hPa 0,0 l/m 0 min 0 min 113 W/m 6,4 km/h (2 Bft) 100,00 %
11.11.2022 12:22 11,6 C 11,7 C 7,8 C 86 % 1031,8 hPa 0,0 l/m 0 min 0 min 113 W/m 6,4 km/h (2 Bft) 100,00 %
11.11.2022 12:24 11,6 C 11,7 C 7,8 C 86 % 1031,8 hPa 0,0 l/m 0 min 0 min 113 W/m 12,9 km/h (3 Bft) 100,00 %
11.11.2022 12:26 11,6 C 11,7 C 7,8 C 86 % 1031,8 hPa 0,0 l/m 0 min 0 min 113 W/m 6,4 km/h (2 Bft) 100,00 %
11.11.2022 12:28 11,6 C 11,7 C 7,8 C 86 % 1031,8 hPa 0,0 l/m 0 min 0 min 113 W/m 6,4 km/h (2 Bft) 97,87 %
11.11.2022 12:30 11,6 C 11,7 C 7,8 C 86 % 1031,8 hPa 0,0 l/m 0 min 0 min 113 W/m 12,9 km/h (3 Bft) 100,00 %
11.11.2022 12:32 11,6 C 11,7 C 7,8 C 86 % 1031,8 hPa 0,0 l/m 0 min 0 min 114 W/m 12,9 km/h (3 Bft) 100,00 %
11.11.2022 12:34 11,6 C 11,7 C 7,8 C 86 % 1031,7 hPa 0,0 l/m 0 min 0 min 114 W/m 9,7 km/h (2 Bft) 100,00 %
11.11.2022 12:36 11,6 C 11,7 C 7,8 C 86 % 1031,8 hPa 0,0 l/m 0 min 0 min 114 W/m 6,4 km/h (2 Bft) 100,00 %
11.11.2022 12:38 11,6 C 11,7 C 7,8 C 86 % 1031,8 hPa 0,0 l/m 0 min 0 min 115 W/m 6,4 km/h (2 Bft) 97,87 %
11.11.2022 12:40 11,6 C 11,7 C 7,8 C 86 % 1031,8 hPa 0,0 l/m 0 min 0 min 118 W/m 6,4 km/h (2 Bft) 100,00 %
11.11.2022 12:42 11,6 C 11,7 C 7,8 C 86 % 1031,7 hPa 0,0 l/m 0 min 0 min 123 W/m 9,7 km/h (2 Bft) 100,00 %
11.11.2022 12:44 11,6 C 11,7 C 7,8 C 86 % 1031,7 hPa 0,0 l/m 0 min 0 min 124 W/m 12,9 km/h (3 Bft) 100,00 %
11.11.2022 12:46 11,7 C 11,7 C 7,8 C 86 % 1031,7 hPa 0,0 l/m 0 min 0 min 124 W/m 6,4 km/h (2 Bft) 100,00 %
11.11.2022 12:48 11,7 C 11,7 C 7,8 C 86 % 1031,7 hPa 0,0 l/m 0 min 0 min 125 W/m 12,9 km/h (3 Bft) 100,00 %
11.11.2022 12:50 11,7 C 11,7 C 7,8 C 86 % 1031,7 hPa 0,0 l/m 0 min 0 min 128 W/m 6,4 km/h (2 Bft) 100,00 %
11.11.2022 12:52 11,7 C 12,2 C 7,8 C 85 % 1031,6 hPa 0,0 l/m 0 min 0 min 136 W/m 12,9 km/h (3 Bft) 100,00 %
11.11.2022 12:54 11,7 C 12,2 C 7,8 C 85 % 1031,6 hPa 0,0 l/m 0 min 0 min 142 W/m 12,9 km/h (3 Bft) 100,00 %
11.11.2022 12:56 11,7 C 12,2 C 7,8 C 85 % 1031,6 hPa 0,0 l/m 0 min 0 min 147 W/m 12,9 km/h (3 Bft) 97,83 %
11.11.2022 12:58 11,8 C 12,2 C 7,8 C 85 % 1031,5 hPa 0,0 l/m 0 min 0 min 170 W/m 12,9 km/h (3 Bft) 100,00 %
11.11.2022 13:00 11,8 C 12,2 C 7,8 C 85 % 1031,5 hPa 0,0 l/m 0 min 0 min 172 W/m 12,9 km/h (3 Bft) 100,00 %
11.11.2022 13:02 11,8 C 12,2 C 7,8 C 85 % 1031,5 hPa 0,0 l/m 0 min 0 min 174 W/m 16,1 km/h (3 Bft) 100,00 %
11.11.2022 13:04 11,8 C 12,2 C 7,8 C 85 % 1031,5 hPa 0,0 l/m 2 min 0 min 198 W/m 6,4 km/h (2 Bft) 100,00 %
11.11.2022 13:06 11,9 C 12,2 C 7,8 C 85 % 1031,4 hPa 0,0 l/m 2 min 0 min 207 W/m 16,1 km/h (3 Bft) 100,00 %
11.11.2022 13:08 11,9 C 12,8 C 7,8 C 85 % 1031,4 hPa 0,0 l/m 2 min 0 min 228 W/m 6,4 km/h (2 Bft) 100,00 %
11.11.2022 13:10 11,9 C 12,8 C 7,8 C 85 % 1031,4 hPa 0,0 l/m 2 min 0 min 245 W/m 16,1 km/h (3 Bft) 100,00 %
11.11.2022 13:12 11,9 C 12,8 C 7,8 C 85 % 1031,4 hPa 0,0 l/m 2 min 0 min 263 W/m 6,4 km/h (2 Bft) 97,87 %
11.11.2022 13:14 12,0 C 12,8 C 7,8 C 85 % 1031,4 hPa 0,0 l/m 2 min 0 min 237 W/m 6,4 km/h (2 Bft) 100,00 %
11.11.2022 13:16 12,1 C 12,8 C 7,8 C 85 % 1031,4 hPa 0,0 l/m 2 min 0 min 204 W/m 12,9 km/h (3 Bft) 100,00 %
11.11.2022 13:18 12,1 C 12,2 C 7,8 C 85 % 1031,3 hPa 0,0 l/m 2 min 0 min 180 W/m 12,9 km/h (3 Bft) 100,00 %
11.11.2022 13:20 12,1 C 12,8 C 7,8 C 85 % 1031,3 hPa 0,0 l/m 2 min 0 min 174 W/m 6,4 km/h (2 Bft) 97,87 %
11.11.2022 13:22 12,2 C 12,8 C 7,8 C 85 % 1031,3 hPa 0,0 l/m 2 min 0 min 170 W/m 6,4 km/h (2 Bft) 97,87 %
11.11.2022 13:24 12,2 C 12,8 C 8,3 C 85 % 1031,3 hPa 0,0 l/m 2 min 0 min 171 W/m 6,4 km/h (2 Bft) 97,87 %
11.11.2022 13:26 12,2 C 12,8 C 8,3 C 85 % 1031,3 hPa 0,0 l/m 2 min 0 min 175 W/m 6,4 km/h (2 Bft) 97,87 %
11.11.2022 13:28 12,3 C 12,8 C 8,3 C 85 % 1031,3 hPa 0,0 l/m 2 min 0 min 193 W/m 3,2 km/h (1 Bft) 97,87 %
11.11.2022 13:30 12,3 C 12,8 C 8,3 C 85 % 1031,3 hPa 0,0 l/m 2 min 0 min 217 W/m 12,9 km/h (3 Bft) 97,83 %
11.11.2022 13:32 12,3 C 12,8 C 8,3 C 84 % 1031,2 hPa 0,0 l/m 2 min 0 min 245 W/m 12,9 km/h (3 Bft) 97,87 %
11.11.2022 13:34 12,4 C 12,8 C 8,3 C 84 % 1031,2 hPa 0,0 l/m 2 min 0 min 250 W/m 16,1 km/h (3 Bft) 97,87 %
11.11.2022 13:36 12,4 C 12,8 C 8,3 C 84 % 1031,2 hPa 0,0 l/m 2 min 0 min 266 W/m 12,9 km/h (3 Bft) 95,74 %
11.11.2022 13:38 12,4 C 12,8 C 8,3 C 83 % 1031,2 hPa 0,0 l/m 2 min 0 min 257 W/m 16,1 km/h (3 Bft) 95,74 %
11.11.2022 13:40 12,5 C 12,8 C 8,3 C 83 % 1031,1 hPa 0,0 l/m 2 min 0 min 260 W/m 6,4 km/h (2 Bft) 97,87 %
11.11.2022 13:42 12,5 C 13,3 C 8,3 C 83 % 1031,1 hPa 0,0 l/m 2 min 0 min 275 W/m 12,9 km/h (3 Bft) 95,65 %
11.11.2022 13:44 12,6 C 13,3 C 8,3 C 83 % 1031,1 hPa 0,0 l/m 2 min 0 min 273 W/m 6,4 km/h (2 Bft) 95,74 %
11.11.2022 13:46 12,6 C 13,3 C 8,3 C 84 % 1031,1 hPa 0,0 l/m 2 min 0 min 285 W/m 6,4 km/h (2 Bft) 93,62 %
11.11.2022 13:48 12,7 C 13,9 C 8,3 C 84 % 1031,1 hPa 0,0 l/m 2 min 0 min 273 W/m 3,2 km/h (1 Bft) 91,49 %
11.11.2022 13:50 12,7 C 13,9 C 8,3 C 83 % 1031,1 hPa 0,0 l/m 2 min 0 min 263 W/m 9,7 km/h (2 Bft) 93,62 %
11.11.2022 13:52 12,8 C 13,9 C 8,3 C 83 % 1031,1 hPa 0,0 l/m 2 min 0 min 254 W/m 12,9 km/h (3 Bft) 95,74 %
11.11.2022 13:54 12,8 C 13,3 C 8,3 C 83 % 1031,0 hPa 0,0 l/m 2 min 0 min 275 W/m 12,9 km/h (3 Bft) 65,22 %
11.11.2022 13:56 12,9 C 13,9 C 8,9 C 83 % 1031,0 hPa 0,0 l/m 2 min 0 min 273 W/m 12,9 km/h (3 Bft) 76,32 %
11.11.2022 13:58 12,9 C 13,9 C 8,9 C 82 % 1031,0 hPa 0,0 l/m 2 min 0 min 265 W/m 6,4 km/h (2 Bft) 93,62 %
11.11.2022 14:00 13,0 C 13,9 C 8,9 C 82 % 1031,0 hPa 0,0 l/m 2 min 0 min 276 W/m 6,4 km/h (2 Bft) 93,62 %
11.11.2022 14:02 13,1 C 13,9 C 8,9 C 81 % 1031,0 hPa 0,0 l/m 2 min 0 min 279 W/m 6,4 km/h (2 Bft) 91,49 %
11.11.2022 14:04 13,1 C 13,9 C 8,9 C 81 % 1031,0 hPa 0,0 l/m 2 min 0 min 288 W/m 12,9 km/h (3 Bft) 93,62 %
11.11.2022 14:06 13,2 C 13,9 C 8,9 C 81 % 1030,9 hPa 0,0 l/m 2 min 0 min 303 W/m 19,3 km/h (3 Bft) 93,48 %
11.11.2022 14:08 13,2 C 13,9 C 8,9 C 80 % 1031,0 hPa 0,0 l/m 2 min 0 min 309 W/m 6,4 km/h (2 Bft) 91,49 %
11.11.2022 14:10 13,2 C 13,9 C 8,9 C 80 % 1031,0 hPa 0,0 l/m 2 min 0 min 318 W/m 6,4 km/h (2 Bft) 93,62 %
11.11.2022 14:12 13,3 C 13,9 C 8,9 C 80 % 1031,0 hPa 0,0 l/m 2 min 0 min 323 W/m 22,5 km/h (4 Bft) 93,62 %
11.11.2022 14:14 13,3 C 13,9 C 8,9 C 80 % 1031,0 hPa 0,0 l/m 2 min 0 min 324 W/m 16,1 km/h (3 Bft) 91,49 %
11.11.2022 14:16 13,4 C 13,9 C 8,9 C 80 % 1031,0 hPa 0,0 l/m 2 min 0 min 327 W/m 19,3 km/h (3 Bft) 95,74 %
11.11.2022 14:18 13,4 C 14,4 C 8,9 C 80 % 1031,0 hPa 0,0 l/m 2 min 0 min 332 W/m 12,9 km/h (3 Bft) 95,65 %
11.11.2022 14:20 13,5 C 14,4 C 8,9 C 80 % 1030,9 hPa 0,0 l/m 2 min 0 min 326 W/m 12,9 km/h (3 Bft) 97,87 %
11.11.2022 14:22 13,6 C 14,4 C 8,9 C 80 % 1030,9 hPa 0,0 l/m 2 min 0 min 316 W/m 9,7 km/h (2 Bft) 97,87 %
11.11.2022 14:24 13,6 C 14,4 C 8,9 C 80 % 1030,9 hPa 0,0 l/m 2 min 0 min 325 W/m 16,1 km/h (3 Bft) 97,87 %
11.11.2022 14:26 13,7 C 14,4 C 8,9 C 79 % 1030,9 hPa 0,0 l/m 2 min 0 min 316 W/m 19,3 km/h (3 Bft) 95,74 %
11.11.2022 14:28 13,7 C 14,4 C 8,9 C 79 % 1030,9 hPa 0,0 l/m 2 min 0 min 259 W/m 9,7 km/h (2 Bft) 97,87 %
11.11.2022 14:30 13,7 C 15,0 C 8,9 C 79 % 1030,9 hPa 0,0 l/m 2 min 0 min 281 W/m 16,1 km/h (3 Bft) 97,83 %
11.11.2022 14:32 13,8 C 15,0 C 9,4 C 79 % 1030,9 hPa 0,0 l/m 2 min 0 min 265 W/m 16,1 km/h (3 Bft) 97,87 %
11.11.2022 14:34 13,8 C 15,0 C 8,9 C 79 % 1030,9 hPa 0,0 l/m 2 min 0 min 230 W/m 12,9 km/h (3 Bft) 97,87 %
11.11.2022 14:36 13,8 C 15,0 C 8,9 C 79 % 1031,0 hPa 0,0 l/m 2 min 0 min 245 W/m 12,9 km/h (3 Bft) 97,87 %
11.11.2022 14:38 13,8 C 14,4 C 8,9 C 79 % 1030,9 hPa 0,0 l/m 2 min 0 min 248 W/m 19,3 km/h (3 Bft) 97,87 %
11.11.2022 14:40 13,8 C 14,4 C 8,9 C 79 % 1030,9 hPa 0,0 l/m 2 min 0 min 246 W/m 12,9 km/h (3 Bft) 97,87 %
11.11.2022 14:42 13,8 C 14,4 C 8,9 C 79 % 1030,9 hPa 0,0 l/m 2 min 0 min 247 W/m 3,2 km/h (1 Bft) 97,83 %
11.11.2022 14:44 13,9 C 15,0 C 8,9 C 79 % 1030,9 hPa 0,0 l/m 2 min 0 min 244 W/m 9,7 km/h (2 Bft) 95,74 %
11.11.2022 14:46 13,9 C 14,4 C 8,9 C 79 % 1030,9 hPa 0,0 l/m 2 min 0 min 212 W/m 12,9 km/h (3 Bft) 100,00 %
11.11.2022 14:48 13,9 C 14,4 C 8,9 C 79 % 1030,9 hPa 0,0 l/m 2 min 0 min 167 W/m 9,7 km/h (2 Bft) 100,00 %
11.11.2022 14:50 13,9 C 13,9 C 8,9 C 79 % 1030,9 hPa 0,0 l/m 2 min 0 min 148 W/m 16,1 km/h (3 Bft) 100,00 %
11.11.2022 14:52 13,9 C 13,9 C 8,9 C 79 % 1030,9 hPa 0,0 l/m 2 min 0 min 147 W/m 12,9 km/h (3 Bft) 100,00 %
11.11.2022 14:54 13,9 C 13,9 C 8,9 C 79 % 1031,0 hPa 0,0 l/m 2 min 0 min 146 W/m 12,9 km/h (3 Bft) 97,83 %
11.11.2022 14:56 13,9 C 13,3 C 8,9 C 79 % 1031,0 hPa 0,0 l/m 2 min 0 min 137 W/m 16,1 km/h (3 Bft) 100,00 %
11.11.2022 14:58 13,8 C 13,3 C 8,9 C 79 % 1031,0 hPa 0,0 l/m 2 min 0 min 133 W/m 16,1 km/h (3 Bft) 97,87 %
11.11.2022 15:00 13,8 C 13,3 C 8,9 C 79 % 1031,0 hPa 0,0 l/m 2 min 0 min 134 W/m 6,4 km/h (2 Bft) 100,00 %
11.11.2022 15:02 13,8 C 13,3 C 8,9 C 79 % 1031,0 hPa 0,0 l/m 2 min 0 min 130 W/m 6,4 km/h (2 Bft) 100,00 %
11.11.2022 15:04 13,8 C 13,3 C 8,9 C 79 % 1030,9 hPa 0,0 l/m 2 min 0 min 124 W/m 6,4 km/h (2 Bft) 100,00 %
11.11.2022 15:06 13,8 C 13,3 C 8,9 C 80 % 1030,9 hPa 0,0 l/m 2 min 0 min 108 W/m 6,4 km/h (2 Bft) 100,00 %
11.11.2022 15:08 13,8 C 13,3 C 8,9 C 80 % 1030,9 hPa 0,0 l/m 2 min 0 min 103 W/m 6,4 km/h (2 Bft) 100,00 %
11.11.2022 15:10 13,8 C 13,3 C 8,9 C 80 % 1030,8 hPa 0,0 l/m 0 min 0 min 96 W/m 6,4 km/h (2 Bft) 100,00 %
11.11.2022 15:12 13,8 C 12,8 C 8,9 C 80 % 1030,9 hPa 0,0 l/m 0 min 0 min 92 W/m 6,4 km/h (2 Bft) 100,00 %
11.11.2022 15:14 13,8 C 12,8 C 8,9 C 80 % 1030,9 hPa 0,0 l/m 0 min 0 min 92 W/m 16,1 km/h (3 Bft) 100,00 %
11.11.2022 15:16 13,8 C 12,8 C 8,9 C 80 % 1030,9 hPa 0,0 l/m 2 min 0 min 96 W/m 12,9 km/h (3 Bft) 97,87 %
11.11.2022 15:18 13,8 C 12,8 C 8,9 C 80 % 1030,9 hPa 0,0 l/m 2 min 0 min 96 W/m 6,4 km/h (2 Bft) 100,00 %
11.11.2022 15:20 13,7 C 12,8 C 8,9 C 80 % 1030,9 hPa 0,0 l/m 0 min 0 min 85 W/m 12,9 km/h (3 Bft) 100,00 %
11.11.2022 15:22 13,7 C 12,8 C 8,9 C 80 % 1030,9 hPa 0,0 l/m 0 min 0 min 73 W/m 12,9 km/h (3 Bft) 100,00 %
11.11.2022 15:24 13,7 C 12,8 C 8,9 C 80 % 1030,9 hPa 0,0 l/m 0 min 0 min 65 W/m 12,9 km/h (3 Bft) 100,00 %
11.11.2022 15:26 13,6 C 12,8 C 8,9 C 81 % 1030,9 hPa 0,0 l/m 0 min 0 min 62 W/m 3,2 km/h (1 Bft) 100,00 %
11.11.2022 15:28 13,6 C 12,8 C 8,9 C 81 % 1030,9 hPa 0,0 l/m 0 min 0 min 61 W/m 12,9 km/h (3 Bft) 95,74 %
11.11.2022 15:30 13,6 C 12,8 C 8,9 C 80 % 1030,8 hPa 0,0 l/m 0 min 0 min 58 W/m 12,9 km/h (3 Bft) 100,00 %
11.11.2022 15:32 13,6 C 12,8 C 8,9 C 81 % 1030,8 hPa 0,0 l/m 0 min 0 min 57 W/m 3,2 km/h (1 Bft) 100,00 %
11.11.2022 15:34 13,5 C 12,8 C 8,9 C 81 % 1030,9 hPa 0,0 l/m 0 min 0 min 56 W/m 12,9 km/h (3 Bft) 100,00 %
11.11.2022 15:36 13,5 C 12,8 C 8,9 C 81 % 1030,8 hPa 0,0 l/m 0 min 0 min 54 W/m 9,7 km/h (2 Bft) 97,87 %
11.11.2022 15:38 13,4 C 12,8 C 8,9 C 81 % 1030,9 hPa 0,0 l/m 0 min 0 min 53 W/m 12,9 km/h (3 Bft) 100,00 %
11.11.2022 15:40 13,4 C 12,8 C 8,9 C 81 % 1030,8 hPa 0,0 l/m 0 min 0 min 52 W/m 6,4 km/h (2 Bft) 100,00 %
11.11.2022 15:42 13,4 C 12,8 C 8,3 C 81 % 1030,8 hPa 0,0 l/m 0 min 0 min 50 W/m 3,2 km/h (1 Bft) 100,00 %
11.11.2022 15:44 13,4 C 12,8 C 8,3 C 81 % 1030,9 hPa 0,0 l/m 0 min 0 min 49 W/m 6,4 km/h (2 Bft) 100,00 %
11.11.2022 15:46 13,4 C 12,8 C 8,3 C 81 % 1030,8 hPa 0,0 l/m 0 min 0 min 48 W/m 6,4 km/h (2 Bft) 100,00 %
11.11.2022 15:48 13,3 C 12,8 C 8,3 C 81 % 1030,9 hPa 0,0 l/m 0 min 0 min 47 W/m 6,4 km/h (2 Bft) 100,00 %
11.11.2022 15:50 13,3 C 12,8 C 8,3 C 81 % 1030,9 hPa 0,0 l/m 0 min 0 min 46 W/m 3,2 km/h (1 Bft) 100,00 %
11.11.2022 15:52 13,3 C 12,2 C 8,3 C 81 % 1030,9 hPa 0,0 l/m 0 min 0 min 46 W/m 3,2 km/h (1 Bft) 97,87 %
11.11.2022 15:54 13,3 C 12,2 C 8,3 C 81 % 1030,9 hPa 0,0 l/m 0 min 0 min 45 W/m 3,2 km/h (1 Bft) 97,83 %
11.11.2022 15:56 13,3 C 12,2 C 8,3 C 81 % 1031,0 hPa 0,0 l/m 0 min 0 min 44 W/m 3,2 km/h (1 Bft) 97,87 %
11.11.2022 15:58 13,2 C 12,2 C 8,3 C 81 % 1030,9 hPa 0,0 l/m 0 min 0 min 44 W/m 6,4 km/h (2 Bft) 95,74 %
11.11.2022 16:00 13,2 C 12,2 C 8,3 C 81 % 1030,9 hPa 0,0 l/m 0 min 0 min 44 W/m 3,2 km/h (1 Bft) 97,87 %
11.11.2022 16:02 13,2 C 12,2 C 8,3 C 81 % 1030,9 hPa 0,0 l/m 0 min 0 min 44 W/m 3,2 km/h (1 Bft) 95,74 %
11.11.2022 16:04 13,2 C 12,2 C 8,3 C 81 % 1031,0 hPa 0,0 l/m 0 min 0 min 43 W/m 3,2 km/h (1 Bft) 97,87 %
11.11.2022 16:06 13,2 C 12,2 C 8,3 C 81 % 1030,9 hPa 0,0 l/m 0 min 0 min 42 W/m 3,2 km/h (1 Bft) 95,65 %
11.11.2022 16:08 13,1 C 12,2 C 8,3 C 81 % 1030,9 hPa 0,0 l/m 0 min 0 min 41 W/m 3,2 km/h (1 Bft) 93,62 %
11.11.2022 16:10 13,1 C 12,2 C 8,3 C 81 % 1030,9 hPa 0,0 l/m 0 min 0 min 39 W/m 3,2 km/h (1 Bft) 95,74 %
11.11.2022 16:12 13,1 C 12,2 C 8,3 C 81 % 1030,9 hPa 0,0 l/m 0 min 0 min 37 W/m 3,2 km/h (1 Bft) 95,74 %
11.11.2022 16:14 13,1 C 12,2 C 7,8 C 81 % 1030,9 hPa 0,0 l/m 0 min 0 min 34 W/m 3,2 km/h (1 Bft) 95,74 %
11.11.2022 16:16 13,1 C 12,2 C 7,8 C 81 % 1030,9 hPa 0,0 l/m 0 min 0 min 32 W/m 3,2 km/h (1 Bft) 95,74 %
11.11.2022 16:18 13,1 C 12,2 C 7,8 C 81 % 1030,8 hPa 0,0 l/m 0 min 0 min 30 W/m 0,0 km/h (0 Bft) 93,48 %
11.11.2022 16:20 13,1 C 11,7 C 7,8 C 81 % 1030,9 hPa 0,0 l/m 0 min 0 min 28 W/m 0,0 km/h (0 Bft) 95,74 %
11.11.2022 16:22 13,0 C 11,7 C 7,8 C 81 % 1030,9 hPa 0,0 l/m 0 min 0 min 26 W/m 0,0 km/h (0 Bft) 95,74 %
11.11.2022 16:24 13,0 C 11,7 C 7,8 C 81 % 1030,9 hPa 0,0 l/m 0 min 0 min 25 W/m 3,2 km/h (1 Bft) 93,62 %
11.11.2022 16:26 12,9 C 11,7 C 7,8 C 81 % 1030,9 hPa 0,0 l/m 2 min 0 min 24 W/m 3,2 km/h (1 Bft) 87,23 %
11.11.2022 16:28 12,9 C 11,7 C 7,8 C 81 % 1030,8 hPa 0,0 l/m 2 min 0 min 22 W/m 3,2 km/h (1 Bft) 93,62 %
11.11.2022 16:30 12,9 C 11,7 C 7,8 C 81 % 1030,9 hPa 0,0 l/m 2 min 0 min 20 W/m 0,0 km/h (0 Bft) 93,48 %
11.11.2022 16:32 12,9 C 11,7 C 7,8 C 81 % 1030,9 hPa 0,0 l/m 0 min 0 min 18 W/m 3,2 km/h (1 Bft) 91,49 %
11.11.2022 16:34 12,9 C 11,7 C 7,8 C 81 % 1031,0 hPa 0,0 l/m 0 min 0 min 17 W/m 3,2 km/h (1 Bft) 91,49 %
11.11.2022 16:36 12,8 C 11,7 C 7,2 C 82 % 1031,0 hPa 0,0 l/m 0 min 0 min 15 W/m 3,2 km/h (1 Bft) 93,62 %
11.11.2022 16:38 12,8 C 11,7 C 7,2 C 82 % 1031,0 hPa 0,0 l/m 0 min 0 min 14 W/m 0,0 km/h (0 Bft) 93,62 %
11.11.2022 16:40 12,8 C 11,7 C 7,2 C 82 % 1030,9 hPa 0,0 l/m 0 min 0 min 12 W/m 0,0 km/h (0 Bft) 91,30 %
11.11.2022 16:42 12,8 C 11,1 C 7,2 C 82 % 1030,9 hPa 0,0 l/m 0 min 0 min 11 W/m 0,0 km/h (0 Bft) 93,62 %
11.11.2022 16:44 12,7 C 11,1 C 6,7 C 82 % 1031,0 hPa 0,0 l/m 0 min 0 min 9 W/m 0,0 km/h (0 Bft) 97,87 %
11.11.2022 16:46 12,7 C 10,6 C 6,7 C 82 % 1031,0 hPa 0,0 l/m 0 min 0 min 6 W/m 0,0 km/h (0 Bft) 97,87 %
11.11.2022 16:48 12,7 C 10,6 C 6,7 C 82 % 1031,0 hPa 0,0 l/m 0 min 0 min 5 W/m 0,0 km/h (0 Bft) 95,74 %
11.11.2022 16:50 12,7 C 10,6 C 6,1 C 82 % 1031,0 hPa 0,0 l/m 0 min 0 min 5 W/m 0,0 km/h (0 Bft) 95,74 %
11.11.2022 16:52 12,6 C 10,0 C 6,1 C 82 % 1031,0 hPa 0,0 l/m 0 min 0 min 1 W/m 0,0 km/h (0 Bft) 97,83 %
11.11.2022 16:54 12,6 C 10,0 C 6,1 C 81 % 1031,0 hPa 0,0 l/m 0 min 0 min 0 W/m 0,0 km/h (0 Bft) 95,74 %
11.11.2022 16:56 12,5 C 10,0 C 6,1 C 81 % 1031,0 hPa 0,0 l/m 0 min 0 min 0 W/m 0,0 km/h (0 Bft) 95,74 %
11.11.2022 16:58 12,4 C 10,0 C 5,6 C 81 % 1031,0 hPa 0,0 l/m 0 min 0 min 0 W/m 0,0 km/h (0 Bft) 97,87 %
11.11.2022 17:00 12,4 C 9,4 C 5,6 C 82 % 1031,0 hPa 0,0 l/m 0 min 0 min 0 W/m 0,0 km/h (0 Bft) 97,87 %
11.11.2022 17:02 12,3 C 9,4 C 5,6 C 82 % 1031,0 hPa 0,0 l/m 0 min 0 min 1 W/m 0,0 km/h (0 Bft) 97,87 %
11.11.2022 17:04 12,3 C 10,0 C 5,6 C 82 % 1031,0 hPa 0,0 l/m 0 min 0 min 3 W/m 3,2 km/h (1 Bft) 100,00 %
11.11.2022 17:06 12,2 C 10,0 C 5,6 C 82 % 1031,0 hPa 0,0 l/m 0 min 0 min 0 W/m 3,2 km/h (1 Bft) 97,87 %
11.11.2022 17:08 12,2 C 10,0 C 5,6 C 82 % 1031,0 hPa 0,0 l/m 0 min 0 min 0 W/m 0,0 km/h (0 Bft) 97,87 %
11.11.2022 17:10 12,1 C 10,0 C 5,6 C 82 % 1031,0 hPa 0,0 l/m 0 min 0 min 0 W/m 0,0 km/h (0 Bft) 100,00 %
11.11.2022 17:12 12,1 C 10,0 C 5,6 C 83 % 1031,0 hPa 0,0 l/m 0 min 0 min 0 W/m 0,0 km/h (0 Bft) 100,00 %
11.11.2022 17:14 12,0 C 10,0 C 5,6 C 83 % 1030,9 hPa 0,0 l/m 0 min 0 min 0 W/m 0,0 km/h (0 Bft) 97,87 %
11.11.2022 17:16 11,9 C 9,4 C 5,6 C 83 % 1030,9 hPa 0,0 l/m 0 min 0 min 0 W/m 0,0 km/h (0 Bft) 100,00 %
11.11.2022 17:18 11,9 C 9,4 C 5,6 C 83 % 1030,8 hPa 0,0 l/m 0 min 0 min 0 W/m 3,2 km/h (1 Bft) 100,00 %
11.11.2022 17:20 11,8 C 9,4 C 5,6 C 83 % 1030,9 hPa 0,0 l/m 0 min 0 min 0 W/m 0,0 km/h (0 Bft) 97,87 %
11.11.2022 17:22 11,8 C 10,0 C 5,6 C 83 % 1031,0 hPa 0,0 l/m 0 min 0 min 0 W/m 3,2 km/h (1 Bft) 100,00 %
11.11.2022 17:24 11,7 C 10,0 C 5,6 C 83 % 1031,0 hPa 0,0 l/m 0 min 0 min 0 W/m 0,0 km/h (0 Bft) 100,00 %
11.11.2022 17:26 11,7 C 10,0 C 5,6 C 83 % 1031,0 hPa 0,0 l/m 0 min 0 min 0 W/m 0,0 km/h (0 Bft) 95,74 %
11.11.2022 17:28 11,6 C 10,0 C 5,6 C 84 % 1031,0 hPa 0,0 l/m 0 min 0 min 0 W/m 0,0 km/h (0 Bft) 97,83 %
11.11.2022 17:30 11,6 C 9,4 C 5,6 C 83 % 1031,0 hPa 0,0 l/m 0 min 0 min 0 W/m 0,0 km/h (0 Bft) 95,74 %
11.11.2022 17:32 11,5 C 9,4 C 5,6 C 84 % 1031,0 hPa 0,0 l/m 0 min 0 min 0 W/m 0,0 km/h (0 Bft) 95,74 %
11.11.2022 17:34 11,4 C 9,4 C 5,6 C 84 % 1031,0 hPa 0,0 l/m 0 min 0 min 0 W/m 0,0 km/h (0 Bft) 97,87 %
11.11.2022 17:36 11,4 C 9,4 C 5,6 C 84 % 1031,0 hPa 0,0 l/m 0 min 0 min 0 W/m 0,0 km/h (0 Bft) 100,00 %
11.11.2022 17:38 11,3 C 9,4 C 5,6 C 84 % 1031,0 hPa 0,0 l/m 0 min 0 min 0 W/m 3,2 km/h (1 Bft) 97,87 %
11.11.2022 17:40 11,3 C 9,4 C 5,6 C 84 % 1031,0 hPa 0,0 l/m 0 min 0 min 0 W/m 3,2 km/h (1 Bft) 100,00 %
11.11.2022 17:42 11,3 C 9,4 C 5,6 C 84 % 1031,0 hPa 0,0 l/m 0 min 0 min 0 W/m 0,0 km/h (0 Bft) 100,00 %
11.11.2022 17:44 11,2 C 9,4 C 5,6 C 84 % 1031,0 hPa 0,0 l/m 0 min 0 min 0 W/m 0,0 km/h (0 Bft) 97,87 %
11.11.2022 17:46 11,2 C 9,4 C 5,6 C 84 % 1031,0 hPa 0,0 l/m 0 min 0 min 0 W/m 3,2 km/h (1 Bft) 100,00 %
11.11.2022 17:48 11,1 C 9,4 C 5,6 C 84 % 1031,0 hPa 0,0 l/m 0 min 0 min 0 W/m 3,2 km/h (1 Bft) 100,00 %
11.11.2022 17:50 11,1 C 10,0 C 5,6 C 85 % 1031,0 hPa 0,0 l/m 0 min 0 min 0 W/m 3,2 km/h (1 Bft) 97,87 %
11.11.2022 17:52 11,1 C 10,0 C 5,6 C 85 % 1030,9 hPa 0,0 l/m 0 min 0 min 0 W/m 3,2 km/h (1 Bft) 100,00 %
11.11.2022 17:54 11,0 C 9,4 C 5,6 C 85 % 1030,9 hPa 0,0 l/m 0 min 0 min 0 W/m 3,2 km/h (1 Bft) 100,00 %
11.11.2022 17:56 11,0 C 9,4 C 5,6 C 85 % 1030,9 hPa 0,0 l/m 0 min 0 min 0 W/m 0,0 km/h (0 Bft) 97,87 %
11.11.2022 17:58 10,9 C 9,4 C 5,6 C 85 % 1031,0 hPa 0,0 l/m 0 min 0 min 0 W/m 0,0 km/h (0 Bft) 100,00 %
11.11.2022 18:00 10,9 C 9,4 C 5,6 C 85 % 1031,0 hPa 0,0 l/m 0 min 0 min 0 W/m 0,0 km/h (0 Bft) 100,00 %
11.11.2022 18:02 10,9 C 9,4 C 5,6 C 85 % 1031,0 hPa 0,0 l/m 0 min 0 min 0 W/m 3,2 km/h (1 Bft) 95,74 %
11.11.2022 18:04 10,8 C 9,4 C 5,6 C 85 % 1031,0 hPa 0,0 l/m 0 min 0 min 0 W/m 3,2 km/h (1 Bft) 95,65 %
11.11.2022 18:08 10,8 C 9,4 C 5,6 C 85 % 1030,9 hPa 0,0 l/m 0 min 0 min 0 W/m 3,2 km/h (1 Bft) 97,59 %
11.11.2022 18:10 10,7 C 9,4 C 5,6 C 85 % 1030,9 hPa 0,0 l/m 0 min 0 min 0 W/m 0,0 km/h (0 Bft) 100,00 %
11.11.2022 18:12 10,7 C 9,4 C 5,6 C 85 % 1030,8 hPa 0,0 l/m 0 min 0 min 0 W/m 3,2 km/h (1 Bft) 97,87 %
11.11.2022 18:14 10,7 C 9,4 C 5,6 C 85 % 1030,9 hPa 0,0 l/m 0 min 0 min 0 W/m 3,2 km/h (1 Bft) 97,87 %
11.11.2022 18:16 10,7 C 9,4 C 5,6 C 85 % 1030,9 hPa 0,0 l/m 0 min 0 min 0 W/m 6,4 km/h (2 Bft) 95,74 %
11.11.2022 18:18 10,6 C 9,4 C 6,1 C 85 % 1030,9 hPa 0,0 l/m 0 min 0 min 0 W/m 12,9 km/h (3 Bft) 93,62 %
11.11.2022 18:20 10,6 C 9,4 C 5,6 C 85 % 1030,9 hPa 0,0 l/m 0 min 0 min 0 W/m 3,2 km/h (1 Bft) 93,48 %
11.11.2022 18:22 10,6 C 9,4 C 6,1 C 85 % 1030,8 hPa 0,0 l/m 0 min 0 min 0 W/m 6,4 km/h (2 Bft) 95,74 %
11.11.2022 18:24 10,6 C 9,4 C 6,1 C 86 % 1030,8 hPa 0,0 l/m 0 min 0 min 0 W/m 3,2 km/h (1 Bft) 91,49 %
11.11.2022 18:26 10,6 C 9,4 C 6,1 C 86 % 1030,8 hPa 0,0 l/m 0 min 0 min 0 W/m 3,2 km/h (1 Bft) 95,74 %
11.11.2022 18:28 10,6 C 9,4 C 6,1 C 86 % 1030,9 hPa 0,0 l/m 0 min 0 min 0 W/m 3,2 km/h (1 Bft) 95,74 %
11.11.2022 18:30 10,5 C 9,4 C 5,6 C 86 % 1030,8 hPa 0,0 l/m 0 min 0 min 0 W/m 3,2 km/h (1 Bft) 97,83 %
11.11.2022 18:32 10,5 C 9,4 C 5,6 C 86 % 1030,8 hPa 0,0 l/m 0 min 0 min 0 W/m 0,0 km/h (0 Bft) 95,74 %
11.11.2022 18:34 10,4 C 9,4 C 6,1 C 86 % 1030,8 hPa 0,0 l/m 0 min 0 min 0 W/m 0,0 km/h (0 Bft) 93,62 %
11.11.2022 18:36 10,4 C 9,4 C 5,6 C 86 % 1030,8 hPa 0,0 l/m 0 min 0 min 0 W/m 0,0 km/h (0 Bft) 95,74 %
11.11.2022 18:38 10,4 C 9,4 C 5,6 C 86 % 1030,8 hPa 0,0 l/m 0 min 0 min 0 W/m 0,0 km/h (0 Bft) 95,74 %
11.11.2022 18:40 10,4 C 9,4 C 5,6 C 86 % 1030,7 hPa 0,0 l/m 0 min 0 min 0 W/m 0,0 km/h (0 Bft) 95,74 %
11.11.2022 18:42 10,4 C 9,4 C 5,6 C 86 % 1030,8 hPa 0,0 l/m 0 min 0 min 0 W/m 0,0 km/h (0 Bft) 97,87 %
11.11.2022 18:44 10,4 C 9,4 C 5,6 C 86 % 1030,8 hPa 0,0 l/m 0 min 0 min 0 W/m 3,2 km/h (1 Bft) 97,83 %
11.11.2022 18:46 10,4 C 9,4 C 5,6 C 86 % 1030,8 hPa 0,0 l/m 0 min 0 min 0 W/m 0,0 km/h (0 Bft) 97,87 %
11.11.2022 18:48 10,3 C 9,4 C 5,6 C 86 % 1030,8 hPa 0,0 l/m 0 min 0 min 0 W/m 0,0 km/h (0 Bft) 97,87 %
11.11.2022 18:50 10,3 C 8,9 C 5,6 C 86 % 1030,8 hPa 0,0 l/m 0 min 0 min 0 W/m 0,0 km/h (0 Bft) 97,87 %
11.11.2022 18:52 10,3 C 9,4 C 5,6 C 86 % 1030,9 hPa 0,0 l/m 0 min 0 min 0 W/m 0,0 km/h (0 Bft) 97,87 %
11.11.2022 18:54 10,3 C 9,4 C 5,6 C 86 % 1031,0 hPa 0,0 l/m 0 min 0 min 0 W/m 0,0 km/h (0 Bft) 95,65 %
11.11.2022 18:56 10,3 C 8,9 C 5,0 C 86 % 1031,0 hPa 0,0 l/m 0 min 0 min 0 W/m 0,0 km/h (0 Bft) 97,87 %
11.11.2022 18:58 10,2 C 8,9 C 5,0 C 86 % 1030,9 hPa 0,0 l/m 0 min 0 min 0 W/m 0,0 km/h (0 Bft) 97,87 %
11.11.2022 19:00 10,2 C 8,9 C 5,0 C 86 % 1031,0 hPa 0,0 l/m 0 min 0 min 0 W/m 0,0 km/h (0 Bft) 100,00 %
11.11.2022 19:02 10,2 C 8,9 C 5,6 C 86 % 1030,9 hPa 0,0 l/m 0 min 0 min 0 W/m 0,0 km/h (0 Bft) 100,00 %
11.11.2022 19:04 10,2 C 9,4 C 5,6 C 86 % 1031,0 hPa 0,0 l/m 0 min 0 min 0 W/m 0,0 km/h (0 Bft) 97,87 %
11.11.2022 19:06 10,2 C 9,4 C 5,6 C 87 % 1031,0 hPa 0,0 l/m 0 min 0 min 0 W/m 0,0 km/h (0 Bft) 94,83 %
11.11.2022 19:08 10,2 C 9,4 C 5,6 C 87 % 1031,0 hPa 0,0 l/m 0 min 0 min 0 W/m 3,2 km/h (1 Bft) 94,29 %
11.11.2022 19:10 10,2 C 9,4 C 5,6 C 87 % 1030,9 hPa 0,0 l/m 0 min 0 min 0 W/m 3,2 km/h (1 Bft) 97,87 %
11.11.2022 19:12 10,1 C 9,4 C 5,6 C 87 % 1031,0 hPa 0,0 l/m 0 min 0 min 0 W/m 6,4 km/h (2 Bft) 95,74 %
11.11.2022 19:14 10,1 C 9,4 C 5,6 C 87 % 1031,0 hPa 0,0 l/m 0 min 0 min 0 W/m 3,2 km/h (1 Bft) 91,49 %
11.11.2022 19:16 10,1 C 9,4 C 5,6 C 87 % 1031,0 hPa 0,0 l/m 0 min 0 min 0 W/m 0,0 km/h (0 Bft) 91,49 %
11.11.2022 19:18 10,1 C 9,4 C 5,6 C 87 % 1031,0 hPa 0,0 l/m 0 min 0 min 0 W/m 3,2 km/h (1 Bft) 97,83 %
11.11.2022 19:20 10,1 C 9,4 C 5,6 C 87 % 1031,1 hPa 0,0 l/m 0 min 0 min 0 W/m 3,2 km/h (1 Bft) 97,87 %
11.11.2022 19:22 10,1 C 9,4 C 5,6 C 87 % 1031,1 hPa 0,0 l/m 0 min 0 min 0 W/m 6,4 km/h (2 Bft) 97,87 %
11.11.2022 19:24 10,1 C 9,4 C 5,6 C 87 % 1031,1 hPa 0,0 l/m 0 min 0 min 0 W/m 3,2 km/h (1 Bft) 95,74 %
11.11.2022 19:26 10,1 C 9,4 C 5,6 C 87 % 1031,1 hPa 0,0 l/m 0 min 0 min 0 W/m 3,2 km/h (1 Bft) 97,87 %
11.11.2022 19:28 10,1 C 9,4 C 5,6 C 87 % 1031,1 hPa 0,0 l/m 0 min 0 min 0 W/m 3,2 km/h (1 Bft) 97,87 %
11.11.2022 19:30 10,1 C 9,4 C 5,6 C 87 % 1031,1 hPa 0,0 l/m 0 min 0 min 0 W/m 3,2 km/h (1 Bft) 97,83 %
11.11.2022 19:32 10,1 C 9,4 C 5,6 C 87 % 1031,1 hPa 0,0 l/m 0 min 0 min 0 W/m 0,0 km/h (0 Bft) 97,87 %
11.11.2022 19:34 10,1 C 9,4 C 5,6 C 87 % 1031,1 hPa 0,0 l/m 0 min 0 min 0 W/m 3,2 km/h (1 Bft) 97,87 %
11.11.2022 19:36 10,0 C 9,4 C 5,6 C 87 % 1031,1 hPa 0,0 l/m 0 min 0 min 0 W/m 6,4 km/h (2 Bft) 95,74 %
11.11.2022 19:38 10,0 C 9,4 C 5,6 C 87 % 1031,2 hPa 0,0 l/m 0 min 0 min 0 W/m 6,4 km/h (2 Bft) 97,87 %
11.11.2022 19:40 10,0 C 9,4 C 5,6 C 87 % 1031,1 hPa 0,0 l/m 0 min 0 min 0 W/m 3,2 km/h (1 Bft) 95,74 %
11.11.2022 19:42 10,0 C 9,4 C 5,6 C 87 % 1031,1 hPa 0,0 l/m 0 min 0 min 0 W/m 6,4 km/h (2 Bft) 97,83 %
11.11.2022 19:44 10,0 C 9,4 C 5,6 C 87 % 1031,1 hPa 0,0 l/m 0 min 0 min 0 W/m 3,2 km/h (1 Bft) 97,87 %
11.11.2022 19:46 9,9 C 8,9 C 5,6 C 87 % 1031,1 hPa 0,0 l/m 0 min 0 min 0 W/m 3,2 km/h (1 Bft) 97,87 %
11.11.2022 19:48 9,9 C 8,9 C 5,6 C 87 % 1031,1 hPa 0,0 l/m 0 min 0 min 0 W/m 6,4 km/h (2 Bft) 97,87 %
11.11.2022 19:50 9,9 C 8,9 C 5,6 C 87 % 1031,1 hPa 0,0 l/m 0 min 0 min 0 W/m 6,4 km/h (2 Bft) 97,87 %
11.11.2022 19:52 9,9 C 9,4 C 5,6 C 87 % 1031,1 hPa 0,0 l/m 0 min 0 min 0 W/m 3,2 km/h (1 Bft) 97,87 %
11.11.2022 19:54 9,9 C 8,9 C 5,6 C 88 % 1031,0 hPa 0,0 l/m 0 min 0 min 0 W/m 3,2 km/h (1 Bft) 97,83 %
11.11.2022 19:56 9,9 C 9,4 C 5,6 C 88 % 1031,1 hPa 0,0 l/m 0 min 0 min 0 W/m 6,4 km/h (2 Bft) 95,74 %
11.11.2022 19:58 9,9 C 8,9 C 5,6 C 88 % 1031,1 hPa 0,0 l/m 0 min 0 min 0 W/m 6,4 km/h (2 Bft) 91,49 %
11.11.2022 20:00 9,9 C 8,9 C 5,6 C 88 % 1031,1 hPa 0,0 l/m 0 min 0 min 0 W/m 3,2 km/h (1 Bft) 93,62 %
11.11.2022 20:02 9,9 C 8,9 C 5,6 C 88 % 1031,1 hPa 0,0 l/m 0 min 0 min 0 W/m 3,2 km/h (1 Bft) 95,74 %
11.11.2022 20:04 9,9 C 8,9 C 5,6 C 88 % 1031,1 hPa 0,0 l/m 0 min 0 min 0 W/m 3,2 km/h (1 Bft) 97,87 %
11.11.2022 20:06 9,9 C 8,9 C 5,6 C 88 % 1031,1 hPa 0,0 l/m 0 min 0 min 0 W/m 6,4 km/h (2 Bft) 95,65 %
11.11.2022 20:08 9,8 C 8,9 C 5,6 C 88 % 1031,1 hPa 0,0 l/m 0 min 0 min 0 W/m 6,4 km/h (2 Bft) 93,62 %
11.11.2022 20:10 9,8 C 8,9 C 5,6 C 87 % 1031,1 hPa 0,0 l/m 0 min 0 min 0 W/m 9,7 km/h (2 Bft) 97,87 %
11.11.2022 20:12 9,8 C 8,9 C 5,6 C 88 % 1031,2 hPa 0,0 l/m 0 min 0 min 0 W/m 6,4 km/h (2 Bft) 97,87 %
11.11.2022 20:14 9,8 C 8,9 C 5,6 C 88 % 1031,2 hPa 0,0 l/m 0 min 0 min 0 W/m 6,4 km/h (2 Bft) 95,74 %
11.11.2022 20:16 9,8 C 8,9 C 5,6 C 88 % 1031,2 hPa 0,0 l/m 0 min 0 min 0 W/m 3,2 km/h (1 Bft) 93,48 %
11.11.2022 20:18 9,8 C 8,9 C 5,6 C 88 % 1031,3 hPa 0,0 l/m 0 min 0 min 0 W/m 3,2 km/h (1 Bft) 97,87 %
11.11.2022 20:20 9,7 C 8,9 C 5,6 C 88 % 1031,3 hPa 0,0 l/m 0 min 0 min 0 W/m 3,2 km/h (1 Bft) 93,62 %
11.11.2022 20:22 9,7 C 8,9 C 5,6 C 88 % 1031,3 hPa 0,0 l/m 0 min 0 min 0 W/m 3,2 km/h (1 Bft) 97,87 %
11.11.2022 20:24 9,7 C 8,9 C 5,6 C 88 % 1031,2 hPa 0,0 l/m 0 min 0 min 0 W/m 12,9 km/h (3 Bft) 97,87 %
11.11.2022 20:26 9,7 C 8,9 C 5,6 C 88 % 1031,3 hPa 0,0 l/m 0 min 0 min 0 W/m 6,4 km/h (2 Bft) 95,74 %
11.11.2022 20:28 9,6 C 8,3 C 5,6 C 88 % 1031,3 hPa 0,0 l/m 0 min 0 min 0 W/m 3,2 km/h (1 Bft) 100,00 %
11.11.2022 20:30 9,6 C 8,3 C 5,6 C 88 % 1031,4 hPa 0,0 l/m 0 min 0 min 0 W/m 6,4 km/h (2 Bft) 100,00 %
11.11.2022 20:32 9,6 C 8,3 C 5,6 C 88 % 1031,4 hPa 0,0 l/m 0 min 0 min 0 W/m 3,2 km/h (1 Bft) 80,85 %
11.11.2022 20:34 9,6 C 8,3 C 5,6 C 88 % 1031,4 hPa 0,0 l/m 0 min 0 min 0 W/m 3,2 km/h (1 Bft) 73,33 %
11.11.2022 20:36 9,6 C 8,3 C 5,6 C 88 % 1031,3 hPa 0,0 l/m 0 min 0 min 0 W/m 6,4 km/h (2 Bft) 97,87 %
11.11.2022 20:38 9,5 C 8,3 C 5,6 C 88 % 1031,3 hPa 0,0 l/m 0 min 0 min 0 W/m 3,2 km/h (1 Bft) 100,00 %
11.11.2022 20:40 9,5 C 8,3 C 5,6 C 88 % 1031,4 hPa 0,0 l/m 0 min 0 min 0 W/m 3,2 km/h (1 Bft) 95,74 %
11.11.2022 20:42 9,4 C 8,3 C 5,6 C 88 % 1031,4 hPa 0,0 l/m 0 min 0 min 0 W/m 3,2 km/h (1 Bft) 95,65 %
11.11.2022 20:44 9,4 C 8,3 C 5,0 C 88 % 1031,4 hPa 0,0 l/m 0 min 0 min 0 W/m 6,4 km/h (2 Bft) 100,00 %
11.11.2022 20:46 9,4 C 8,3 C 5,0 C 88 % 1031,4 hPa 0,0 l/m 0 min 0 min 0 W/m 6,4 km/h (2 Bft) 97,87 %
11.11.2022 20:48 9,4 C 8,3 C 5,0 C 88 % 1031,4 hPa 0,0 l/m 0 min 0 min 0 W/m 6,4 km/h (2 Bft) 97,87 %
11.11.2022 20:50 9,4 C 8,3 C 5,0 C 88 % 1031,3 hPa 0,0 l/m 0 min 0 min 0 W/m 6,4 km/h (2 Bft) 97,87 %
11.11.2022 20:52 9,3 C 8,3 C 5,0 C 88 % 1031,3 hPa 0,0 l/m 0 min 0 min 0 W/m 3,2 km/h (1 Bft) 95,74 %
11.11.2022 20:54 9,3 C 8,3 C 5,0 C 89 % 1031,3 hPa 0,0 l/m 0 min 0 min 0 W/m 3,2 km/h (1 Bft) 95,65 %
11.11.2022 20:56 9,3 C 8,3 C 5,0 C 88 % 1031,4 hPa 0,0 l/m 0 min 0 min 0 W/m 6,4 km/h (2 Bft) 97,87 %
11.11.2022 20:58 9,2 C 8,3 C 5,0 C 89 % 1031,3 hPa 0,0 l/m 0 min 0 min 0 W/m 6,4 km/h (2 Bft) 95,74 %
11.11.2022 21:00 9,2 C 8,3 C 5,0 C 89 % 1031,3 hPa 0,0 l/m 0 min 0 min 0 W/m 3,2 km/h (1 Bft) 97,87 %
11.11.2022 21:02 9,2 C 7,8 C 5,0 C 89 % 1031,3 hPa 0,0 l/m 0 min 0 min 0 W/m 3,2 km/h (1 Bft) 97,87 %
11.11.2022 21:04 9,2 C 7,8 C 5,0 C 89 % 1031,4 hPa 0,0 l/m 0 min 0 min 0 W/m 6,4 km/h (2 Bft) 97,87 %
11.11.2022 21:06 9,1 C 7,8 C 5,0 C 89 % 1031,4 hPa 0,0 l/m 0 min 0 min 0 W/m 6,4 km/h (2 Bft) 94,83 %
11.11.2022 21:08 9,1 C 7,8 C 5,0 C 89 % 1031,4 hPa 0,0 l/m 0 min 0 min 0 W/m 3,2 km/h (1 Bft) 100,00 %
11.11.2022 21:10 9,1 C 7,8 C 5,0 C 89 % 1031,4 hPa 0,0 l/m 0 min 0 min 0 W/m 12,9 km/h (3 Bft) 93,62 %
11.11.2022 21:12 9,1 C 7,8 C 5,0 C 89 % 1031,4 hPa 0,0 l/m 0 min 0 min 0 W/m 3,2 km/h (1 Bft) 97,87 %
11.11.2022 21:14 9,0 C 7,8 C 5,0 C 89 % 1031,4 hPa 0,0 l/m 0 min 0 min 0 W/m 3,2 km/h (1 Bft) 100,00 %
11.11.2022 21:16 9,0 C 7,8 C 5,0 C 89 % 1031,5 hPa 0,0 l/m 0 min 0 min 0 W/m 3,2 km/h (1 Bft) 100,00 %
11.11.2022 21:18 8,9 C 7,8 C 5,0 C 89 % 1031,5 hPa 0,0 l/m 0 min 0 min 0 W/m 6,4 km/h (2 Bft) 100,00 %
11.11.2022 21:20 8,9 C 7,8 C 5,0 C 89 % 1031,5 hPa 0,0 l/m 0 min 0 min 0 W/m 6,4 km/h (2 Bft) 97,87 %
11.11.2022 21:22 8,9 C 7,8 C 5,0 C 89 % 1031,5 hPa 0,0 l/m 0 min 0 min 0 W/m 6,4 km/h (2 Bft) 95,74 %
11.11.2022 21:24 8,9 C 7,8 C 5,0 C 89 % 1031,5 hPa 0,0 l/m 0 min 0 min 0 W/m 3,2 km/h (1 Bft) 95,74 %
11.11.2022 21:26 8,8 C 7,8 C 5,0 C 90 % 1031,6 hPa 0,0 l/m 0 min 0 min 0 W/m 6,4 km/h (2 Bft) 97,87 %
11.11.2022 21:28 8,8 C 7,8 C 5,0 C 90 % 1031,6 hPa 0,0 l/m 0 min 0 min 0 W/m 6,4 km/h (2 Bft) 100,00 %
11.11.2022 21:30 8,8 C 7,8 C 5,0 C 90 % 1031,6 hPa 0,0 l/m 0 min 0 min 0 W/m 6,4 km/h (2 Bft) 100,00 %
11.11.2022 21:32 8,8 C 7,8 C 5,0 C 90 % 1031,6 hPa 0,0 l/m 0 min 0 min 0 W/m 3,2 km/h (1 Bft) 100,00 %
11.11.2022 21:34 8,8 C 7,8 C 5,0 C 90 % 1031,6 hPa 0,0 l/m 0 min 0 min 0 W/m 0,0 km/h (0 Bft) 100,00 %
11.11.2022 21:36 8,8 C 7,8 C 5,0 C 90 % 1031,6 hPa 0,0 l/m 0 min 0 min 0 W/m 6,4 km/h (2 Bft) 100,00 %
11.11.2022 21:38 8,7 C 7,8 C 5,0 C 90 % 1031,7 hPa 0,0 l/m 0 min 0 min 0 W/m 3,2 km/h (1 Bft) 97,87 %
11.11.2022 21:40 8,7 C 7,8 C 4,4 C 90 % 1031,6 hPa 0,0 l/m 0 min 0 min 0 W/m 3,2 km/h (1 Bft) 97,87 %
11.11.2022 21:42 8,7 C 7,8 C 4,4 C 90 % 1031,6 hPa 0,0 l/m 0 min 0 min 0 W/m 3,2 km/h (1 Bft) 97,83 %
11.11.2022 21:44 8,7 C 7,8 C 4,4 C 90 % 1031,7 hPa 0,0 l/m 0 min 0 min 0 W/m 0,0 km/h (0 Bft) 97,87 %
11.11.2022 21:46 8,7 C 7,8 C 4,4 C 90 % 1031,7 hPa 0,0 l/m 0 min 0 min 0 W/m 3,2 km/h (1 Bft) 97,87 %
11.11.2022 21:48 8,7 C 7,8 C 4,4 C 90 % 1031,7 hPa 0,0 l/m 0 min 0 min 0 W/m 3,2 km/h (1 Bft) 97,87 %
11.11.2022 21:50 8,6 C 7,8 C 4,4 C 90 % 1031,7 hPa 0,0 l/m 0 min 0 min 0 W/m 3,2 km/h (1 Bft) 97,87 %
11.11.2022 21:52 8,6 C 7,8 C 4,4 C 90 % 1031,7 hPa 0,0 l/m 0 min 0 min 0 W/m 6,4 km/h (2 Bft) 95,65 %
11.11.2022 21:54 8,6 C 7,8 C 4,4 C 90 % 1031,7 hPa 0,0 l/m 0 min 0 min 0 W/m 3,2 km/h (1 Bft) 97,87 %
11.11.2022 21:56 8,6 C 7,8 C 4,4 C 90 % 1031,7 hPa 0,0 l/m 0 min 0 min 0 W/m 3,2 km/h (1 Bft) 97,87 %
11.11.2022 21:58 8,6 C 7,2 C 4,4 C 90 % 1031,7 hPa 0,0 l/m 0 min 0 min 0 W/m 3,2 km/h (1 Bft) 95,74 %
11.11.2022 22:00 8,5 C 7,2 C 4,4 C 90 % 1031,7 hPa 0,0 l/m 0 min 0 min 0 W/m 3,2 km/h (1 Bft) 97,87 %
11.11.2022 22:02 8,5 C 7,2 C 4,4 C 90 % 1031,7 hPa 0,0 l/m 0 min 0 min 0 W/m 0,0 km/h (0 Bft) 95,74 %
11.11.2022 22:04 8,5 C 7,2 C 4,4 C 91 % 1031,7 hPa 0,0 l/m 0 min 0 min 0 W/m 6,4 km/h (2 Bft) 97,83 %
11.11.2022 22:06 8,4 C 7,2 C 4,4 C 90 % 1031,7 hPa 0,0 l/m 0 min 0 min 0 W/m 3,2 km/h (1 Bft) 98,31 %
11.11.2022 22:08 8,4 C 7,2 C 4,4 C 90 % 1031,7 hPa 0,0 l/m 0 min 0 min 0 W/m 3,2 km/h (1 Bft) 97,14 %
11.11.2022 22:10 8,4 C 7,2 C 4,4 C 90 % 1031,7 hPa 0,0 l/m 0 min 0 min 0 W/m 3,2 km/h (1 Bft) 100,00 %
11.11.2022 22:12 8,4 C 7,2 C 4,4 C 91 % 1031,7 hPa 0,0 l/m 0 min 0 min 0 W/m 6,4 km/h (2 Bft) 100,00 %
11.11.2022 22:14 8,4 C 7,2 C 4,4 C 91 % 1031,8 hPa 0,0 l/m 0 min 0 min 0 W/m 6,4 km/h (2 Bft) 100,00 %
11.11.2022 22:16 8,4 C 7,2 C 4,4 C 91 % 1031,9 hPa 0,0 l/m 0 min 0 min 0 W/m 6,4 km/h (2 Bft) 100,00 %
11.11.2022 22:18 8,3 C 7,2 C 4,4 C 91 % 1031,9 hPa 0,0 l/m 0 min 0 min 0 W/m 3,2 km/h (1 Bft) 97,87 %
11.11.2022 22:20 8,3 C 7,2 C 4,4 C 91 % 1031,8 hPa 0,0 l/m 0 min 0 min 0 W/m 3,2 km/h (1 Bft) 100,00 %
11.11.2022 22:22 8,3 C 7,2 C 4,4 C 91 % 1031,8 hPa 0,0 l/m 0 min 0 min 0 W/m 3,2 km/h (1 Bft) 97,87 %
11.11.2022 22:24 8,3 C 7,8 C 4,4 C 91 % 1031,7 hPa 0,0 l/m 0 min 0 min 0 W/m 3,2 km/h (1 Bft) 100,00 %
11.11.2022 22:26 8,3 C 7,8 C 4,4 C 91 % 1031,7 hPa 0,0 l/m 0 min 0 min 0 W/m 9,7 km/h (2 Bft) 97,87 %
11.11.2022 22:28 8,3 C 7,8 C 4,4 C 91 % 1031,8 hPa 0,0 l/m 0 min 0 min 0 W/m 6,4 km/h (2 Bft) 100,00 %
11.11.2022 22:30 8,3 C 7,8 C 4,4 C 91 % 1031,7 hPa 0,0 l/m 0 min 0 min 0 W/m 12,9 km/h (3 Bft) 97,87 %
11.11.2022 22:32 8,3 C 7,8 C 4,4 C 91 % 1031,8 hPa 0,0 l/m 0 min 0 min 0 W/m 12,9 km/h (3 Bft) 97,87 %
11.11.2022 22:34 8,3 C 7,8 C 4,4 C 91 % 1031,7 hPa 0,0 l/m 0 min 0 min 0 W/m 6,4 km/h (2 Bft) 95,74 %
11.11.2022 22:36 8,3 C 7,8 C 4,4 C 91 % 1031,8 hPa 0,0 l/m 0 min 0 min 0 W/m 3,2 km/h (1 Bft) 97,87 %
11.11.2022 22:38 8,3 C 7,8 C 4,4 C 91 % 1031,8 hPa 0,0 l/m 0 min 0 min 0 W/m 3,2 km/h (1 Bft) 97,87 %
11.11.2022 22:40 8,3 C 7,8 C 4,4 C 91 % 1031,8 hPa 0,0 l/m 0 min 0 min 0 W/m 12,9 km/h (3 Bft) 93,48 %
11.11.2022 22:42 8,3 C 7,8 C 4,4 C 91 % 1031,9 hPa 0,0 l/m 0 min 0 min 0 W/m 6,4 km/h (2 Bft) 93,62 %
11.11.2022 22:44 8,3 C 7,8 C 4,4 C 91 % 1031,8 hPa 0,0 l/m 0 min 0 min 0 W/m 12,9 km/h (3 Bft) 97,87 %
11.11.2022 22:46 8,3 C 7,8 C 4,4 C 91 % 1031,8 hPa 0,0 l/m 0 min 0 min 0 W/m 12,9 km/h (3 Bft) 97,87 %
11.11.2022 22:48 8,3 C 7,8 C 4,4 C 91 % 1031,8 hPa 0,0 l/m 0 min 0 min 0 W/m 16,1 km/h (3 Bft) 97,87 %
11.11.2022 22:50 8,3 C 7,8 C 4,4 C 91 % 1031,9 hPa 0,0 l/m 0 min 0 min 0 W/m 12,9 km/h (3 Bft) 95,74 %
11.11.2022 22:52 8,3 C 7,8 C 4,4 C 91 % 1031,8 hPa 0,0 l/m 0 min 0 min 0 W/m 6,4 km/h (2 Bft) 93,48 %
11.11.2022 22:54 8,3 C 7,8 C 4,4 C 91 % 1031,8 hPa 0,0 l/m 0 min 0 min 0 W/m 6,4 km/h (2 Bft) 93,62 %
11.11.2022 22:56 8,3 C 7,8 C 4,4 C 91 % 1031,8 hPa 0,0 l/m 0 min 0 min 0 W/m 6,4 km/h (2 Bft) 93,62 %
11.11.2022 22:58 8,3 C 7,8 C 4,4 C 91 % 1031,8 hPa 0,0 l/m 0 min 0 min 0 W/m 6,4 km/h (2 Bft) 95,74 %
11.11.2022 23:00 8,3 C 7,2 C 4,4 C 91 % 1031,9 hPa 0,0 l/m 0 min 0 min 0 W/m 3,2 km/h (1 Bft) 95,74 %
11.11.2022 23:02 8,3 C 7,2 C 4,4 C 91 % 1031,8 hPa 0,0 l/m 0 min 0 min 0 W/m 3,2 km/h (1 Bft) 95,74 %
11.11.2022 23:04 8,3 C 7,2 C 4,4 C 91 % 1031,9 hPa 0,0 l/m 0 min 0 min 0 W/m 6,4 km/h (2 Bft) 95,65 %
11.11.2022 23:06 8,3 C 7,2 C 4,4 C 91 % 1031,8 hPa 0,0 l/m 0 min 0 min 0 W/m 3,2 km/h (1 Bft) 94,92 %
11.11.2022 23:08 8,2 C 7,2 C 4,4 C 91 % 1031,8 hPa 0,0 l/m 0 min 0 min 0 W/m 3,2 km/h (1 Bft) 94,29 %
11.11.2022 23:10 8,2 C 7,2 C 4,4 C 91 % 1031,9 hPa 0,0 l/m 0 min 0 min 0 W/m 12,9 km/h (3 Bft) 95,74 %
11.11.2022 23:12 8,2 C 7,2 C 4,4 C 91 % 1031,9 hPa 0,0 l/m 0 min 0 min 0 W/m 6,4 km/h (2 Bft) 93,62 %
11.11.2022 23:14 8,2 C 7,2 C 4,4 C 91 % 1032,0 hPa 0,0 l/m 0 min 0 min 0 W/m 12,9 km/h (3 Bft) 91,49 %
11.11.2022 23:16 8,2 C 7,2 C 4,4 C 91 % 1032,0 hPa 0,0 l/m 0 min 0 min 0 W/m 16,1 km/h (3 Bft) 93,48 %
11.11.2022 23:18 8,2 C 7,2 C 4,4 C 91 % 1031,9 hPa 0,0 l/m 0 min 0 min 0 W/m 6,4 km/h (2 Bft) 93,62 %
11.11.2022 23:20 8,2 C 7,2 C 4,4 C 91 % 1031,9 hPa 0,0 l/m 0 min 0 min 0 W/m 6,4 km/h (2 Bft) 95,74 %
11.11.2022 23:22 8,2 C 7,2 C 4,4 C 91 % 1031,9 hPa 0,0 l/m 0 min 0 min 0 W/m 6,4 km/h (2 Bft) 93,62 %
11.11.2022 23:24 8,2 C 7,2 C 4,4 C 91 % 1032,0 hPa 0,0 l/m 0 min 0 min 0 W/m 6,4 km/h (2 Bft) 91,49 %
11.11.2022 23:26 8,2 C 7,2 C 4,4 C 91 % 1032,0 hPa 0,0 l/m 0 min 0 min 0 W/m 6,4 km/h (2 Bft) 93,62 %
11.11.2022 23:28 8,2 C 7,2 C 4,4 C 91 % 1032,0 hPa 0,0 l/m 0 min 0 min 0 W/m 12,9 km/h (3 Bft) 93,48 %
11.11.2022 23:30 8,2 C 7,2 C 4,4 C 91 % 1032,0 hPa 0,0 l/m 0 min 0 min 0 W/m 0,0 km/h (0 Bft) 95,74 %
11.11.2022 23:32 8,2 C 7,2 C 4,4 C 91 % 1032,1 hPa 0,0 l/m 0 min 0 min 0 W/m 6,4 km/h (2 Bft) 95,74 %
11.11.2022 23:34 8,2 C 7,2 C 4,4 C 91 % 1032,1 hPa 0,0 l/m 0 min 0 min 0 W/m 12,9 km/h (3 Bft) 95,74 %
11.11.2022 23:36 8,2 C 7,2 C 4,4 C 91 % 1032,2 hPa 0,0 l/m 0 min 0 min 0 W/m 6,4 km/h (2 Bft) 95,74 %
11.11.2022 23:38 8,1 C 7,2 C 4,4 C 91 % 1032,1 hPa 0,0 l/m 0 min 0 min 0 W/m 3,2 km/h (1 Bft) 97,87 %
11.11.2022 23:40 8,1 C 7,2 C 4,4 C 91 % 1032,1 hPa 0,0 l/m 0 min 0 min 0 W/m 3,2 km/h (1 Bft) 97,83 %
11.11.2022 23:42 8,1 C 7,2 C 4,4 C 91 % 1032,1 hPa 0,0 l/m 0 min 0 min 0 W/m 3,2 km/h (1 Bft) 93,62 %
11.11.2022 23:44 8,1 C 7,2 C 3,9 C 91 % 1032,2 hPa 0,0 l/m 0 min 0 min 0 W/m 6,4 km/h (2 Bft) 95,74 %
11.11.2022 23:46 8,1 C 7,2 C 3,9 C 91 % 1032,2 hPa 0,0 l/m 0 min 0 min 0 W/m 6,4 km/h (2 Bft) 97,87 %
11.11.2022 23:48 8,1 C 7,2 C 3,9 C 91 % 1032,2 hPa 0,0 l/m 0 min 0 min 0 W/m 3,2 km/h (1 Bft) 100,00 %
11.11.2022 23:50 8,0 C 6,7 C 3,9 C 91 % 1032,1 hPa 0,0 l/m 0 min 0 min 0 W/m 6,4 km/h (2 Bft) 100,00 %
11.11.2022 23:52 8,0 C 6,7 C 3,9 C 91 % 1032,1 hPa 0,0 l/m 0 min 0 min 0 W/m 12,9 km/h (3 Bft) 100,00 %
11.11.2022 23:54 7,9 C 6,7 C 3,9 C 91 % 1032,2 hPa 0,0 l/m 0 min 0 min 0 W/m 6,4 km/h (2 Bft) 100,00 %
11.11.2022 23:56 7,9 C 6,7 C 3,9 C 91 % 1032,2 hPa 0,0 l/m 0 min 0 min 0 W/m 3,2 km/h (1 Bft) 100,00 %
11.11.2022 23:58 7,9 C 6,7 C 3,9 C 91 % 1032,2 hPa 0,0 l/m 0 min 0 min 0 W/m 6,4 km/h (2 Bft) 100,00 %
_ Min-Zeit 05:52 05:32 04:14 14:26 00:00 - - - - 00:56 04:09
Minimum _ 6,0 C 5,0 C 2,8 C 79 % 1029,3 hPa - - - - 0,0 km/h (0 Bft) 42,86 %
_ Max-Zeit 14:44 14:30 14:32 06:08 23:36 00:00 09:40 00:00 14:18 14:12 00:04
Maximum _ 13,9 C 15,0 C 9,4 C 96 % 1032,2 hPa 0,0 l/m 2 min 0 min 332 W/m 22,5 km/h
SO (4 Bft)
100,00 %
Durchschnitt _ 9,1 C 8,6 C 5,1 C 90 % 1030,9 hPa #0,0 l/m #3:24 h #0 min. 125 W/m 6,2 km/h (2 Bft) 96,98 %
© 2022 W. Hausmann